PWSweather.com
Personal Weather Stations
Station Observations
KCOFALCO8
Falcon Hills, Falcon, CO 80831

Falcon HillsFalcon, CO 80831

Lat: 38.979792, Lon: -104.61195

Elevation: 7170

Station Type: AcuRite Pro 5-in-1

http://wx.frazierhome.net/

Latest ConditionsUpdated 1:24:04 PM MDT Saturday, Apr 20, 2019
Currently Today's Max Today's Min Today's Average
Temperature 75.5°F24.2°C 76.8°F24.9°C 43.0°F6.1°C 57.9°F14.4°C
Dew Point 19.5°F-6.9°C 29.4°F-1.4°C 11.4°F-11.4°C 23.6°F-4.7°C
Winds 8.0 mph SE12.9 kmh SE 14.0 mph -22.5 kmh - - 4.5 mph 7.2 kmh
Wind Gusts -- -- - -
Humidity 12% 55% 10% 32%
Pressure 29.97 in1014.9 mb 30.11 in1019.6 mb 29.97 in1014.9 mb -
Hour Temp Dew Point Humidity Winds Wind Gusts Pressure Precip Precip Rate Daily Precip Total
01:24 PM 75.5°F24.2°C 19.5°F-6.9°C 12% 8.0 mph SE12.9 kmh SE -- 29.97 in1014.9 mb 0.00 in0.0 mm 0.00 in0.0 mm 0.00 in0.0 mm
01:23 PM 75.3°F24.1°C 21.2°F-6.0°C 13% 6.0 mph S9.7 kmh S -- 29.97 in1014.9 mb 0.00 in0.0 mm 0.00 in0.0 mm 0.00 in0.0 mm
01:22 PM 74.6°F23.7°C 20.6°F-6.3°C 13% 4.0 mph SSW6.4 kmh SSW -- 29.97 in1014.9 mb 0.00 in0.0 mm 0.00 in0.0 mm 0.00 in0.0 mm
01:21 PM 74.6°F23.7°C 20.6°F-6.3°C 13% 9.0 mph SSW14.5 kmh SSW -- 29.97 in1014.9 mb 0.00 in0.0 mm 0.00 in0.0 mm 0.00 in0.0 mm
01:20 PM 74.8°F23.8°C 20.8°F-6.2°C 13% 4.0 mph SW6.4 kmh SW -- 29.97 in1014.9 mb 0.00 in0.0 mm 0.00 in0.0 mm 0.00 in0.0 mm
01:19 PM 74.8°F23.8°C 20.8°F-6.2°C 13% 6.0 mph SSE9.7 kmh SSE -- 29.97 in1014.9 mb 0.00 in0.0 mm 0.00 in0.0 mm 0.00 in0.0 mm
01:18 PM 75.0°F23.9°C 20.9°F-6.2°C 13% 8.0 mph SSW12.9 kmh SSW -- 29.97 in1014.9 mb 0.00 in0.0 mm 0.00 in0.0 mm 0.00 in0.0 mm
01:17 PM 75.1°F23.9°C 20.9°F-6.2°C 13% 8.0 mph S12.9 kmh S -- 29.97 in1014.9 mb 0.00 in0.0 mm 0.00 in0.0 mm 0.00 in0.0 mm
01:16 PM 75.5°F24.2°C 21.4°F-5.9°C 13% 6.0 mph S9.7 kmh S -- 29.97 in1014.9 mb 0.00 in0.0 mm 0.00 in0.0 mm 0.00 in0.0 mm
01:15 PM 75.0°F23.9°C 20.9°F-6.2°C 13% 10.0 mph S16.1 kmh S -- 29.97 in1014.9 mb 0.00 in0.0 mm 0.00 in0.0 mm 0.00 in0.0 mm
01:14 PM 74.3°F23.5°C 20.3°F-6.5°C 13% 8.0 mph SSW12.9 kmh SSW -- 29.97 in1014.9 mb 0.00 in0.0 mm 0.00 in0.0 mm 0.00 in0.0 mm
01:13 PM 73.9°F23.3°C 20.1°F-6.6°C 13% 12.0 mph S19.3 kmh S -- 29.97 in1014.9 mb 0.00 in0.0 mm 0.00 in0.0 mm 0.00 in0.0 mm
01:12 PM 74.0°F23.3°C 20.1°F-6.6°C 13% 11.0 mph SSE17.7 kmh SSE -- 29.97 in1014.9 mb 0.00 in0.0 mm 0.00 in0.0 mm 0.00 in0.0 mm
01:11 PM 74.3°F23.5°C 20.3°F-6.5°C 13% 13.0 mph SSE20.9 kmh SSE -- 29.97 in1014.9 mb 0.00 in0.0 mm 0.00 in0.0 mm 0.00 in0.0 mm
01:10 PM 74.8°F23.8°C 20.8°F-6.2°C 13% 14.0 mph S22.5 kmh S -- 29.97 in1014.9 mb 0.00 in0.0 mm 0.00 in0.0 mm 0.00 in0.0 mm
01:09 PM 75.1°F23.9°C 20.9°F-6.2°C 13% 8.0 mph S12.9 kmh S -- 29.98 in1015.2 mb 0.00 in0.0 mm 0.00 in0.0 mm 0.00 in0.0 mm
01:08 PM 75.6°F24.2°C 21.4°F-5.9°C 13% 8.0 mph SSE12.9 kmh SSE -- 29.97 in1014.9 mb 0.00 in0.0 mm 0.00 in0.0 mm 0.00 in0.0 mm
01:07 PM 76.0°F24.4°C 21.6°F-5.8°C 13% 9.0 mph SW14.5 kmh SW -- 29.97 in1014.9 mb 0.00 in0.0 mm 0.00 in0.0 mm 0.00 in0.0 mm
01:06 PM 76.0°F24.4°C 21.6°F-5.8°C 13% 6.0 mph SE9.7 kmh SE -- 29.97 in1014.9 mb 0.00 in0.0 mm 0.00 in0.0 mm 0.00 in0.0 mm
01:05 PM 75.5°F24.2°C 21.4°F-5.9°C 13% 8.0 mph SE12.9 kmh SE -- 29.97 in1014.9 mb 0.00 in0.0 mm 0.00 in0.0 mm 0.00 in0.0 mm
01:04 PM 75.3°F24.1°C 21.2°F-6.0°C 13% 5.0 mph SSE8.0 kmh SSE -- 29.97 in1014.9 mb 0.00 in0.0 mm 0.00 in0.0 mm 0.00 in0.0 mm
01:03 PM 76.3°F24.6°C 21.9°F-5.6°C 13% 10.0 mph SSE16.1 kmh SSE -- 29.97 in1014.9 mb 0.00 in0.0 mm 0.00 in0.0 mm 0.00 in0.0 mm
01:02 PM 76.8°F24.9°C 25.7°F-3.5°C 15% 8.0 mph SSW12.9 kmh SSW -- 29.97 in1014.9 mb 0.00 in0.0 mm 0.00 in0.0 mm 0.00 in0.0 mm
01:01 PM 76.5°F24.7°C 25.5°F-3.6°C 15% 6.0 mph SSE9.7 kmh SSE -- 29.97 in1014.9 mb 0.00 in0.0 mm 0.00 in0.0 mm 0.00 in0.0 mm
01:00 PM 75.6°F24.2°C 24.7°F-4.1°C 15% 4.0 mph E6.4 kmh E -- 29.97 in1014.9 mb 0.00 in0.0 mm 0.00 in0.0 mm 0.00 in0.0 mm
12:59 PM 74.8°F23.8°C 20.8°F-6.2°C 13% 3.0 mph ESE4.8 kmh ESE -- 29.97 in1014.9 mb 0.00 in0.0 mm 0.00 in0.0 mm 0.00 in0.0 mm
12:58 PM 74.6°F23.7°C 20.6°F-6.3°C 13% 3.0 mph E4.8 kmh E -- 29.97 in1014.9 mb 0.00 in0.0 mm 0.00 in0.0 mm 0.00 in0.0 mm
12:57 PM 75.1°F23.9°C 20.9°F-6.2°C 13% 2.0 mph NW3.2 kmh NW -- 29.98 in1015.2 mb 0.00 in0.0 mm 0.00 in0.0 mm 0.00 in0.0 mm
12:56 PM 75.0°F23.9°C 20.9°F-6.2°C 13% 4.0 mph W6.4 kmh W -- 29.98 in1015.2 mb 0.00 in0.0 mm 0.00 in0.0 mm 0.00 in0.0 mm
12:55 PM 75.0°F23.9°C 20.9°F-6.2°C 13% 3.0 mph SSE4.8 kmh SSE -- 29.98 in1015.2 mb 0.00 in0.0 mm 0.00 in0.0 mm 0.00 in0.0 mm
12:54 PM 74.8°F23.8°C 20.8°F-6.2°C 13% 7.0 mph SSW11.3 kmh SSW -- 29.98 in1015.2 mb 0.00 in0.0 mm 0.00 in0.0 mm 0.00 in0.0 mm
12:53 PM 74.6°F23.7°C 20.6°F-6.3°C 13% 5.0 mph SE8.0 kmh SE -- 29.97 in1014.9 mb 0.00 in0.0 mm 0.00 in0.0 mm 0.00 in0.0 mm
12:52 PM 74.0°F23.3°C 20.1°F-6.6°C 13% 4.0 mph SW6.4 kmh SW -- 29.98 in1015.2 mb 0.00 in0.0 mm 0.00 in0.0 mm 0.00 in0.0 mm
12:51 PM 73.8°F23.2°C 23.3°F-4.8°C 15% 2.0 mph SW3.2 kmh SW -- 29.98 in1015.2 mb 0.00 in0.0 mm 0.00 in0.0 mm 0.00 in0.0 mm
12:50 PM 73.9°F23.3°C 20.1°F-6.6°C 13% 3.0 mph SE4.8 kmh SE -- 29.98 in1015.2 mb 0.00 in0.0 mm 0.00 in0.0 mm 0.00 in0.0 mm
12:49 PM 74.0°F23.3°C 20.1°F-6.6°C 13% 4.0 mph S6.4 kmh S -- 29.98 in1015.2 mb 0.00 in0.0 mm 0.00 in0.0 mm 0.00 in0.0 mm
12:48 PM 74.0°F23.3°C 20.1°F-6.6°C 13% 5.0 mph S8.0 kmh S -- 29.98 in1015.2 mb 0.00 in0.0 mm 0.00 in0.0 mm 0.00 in0.0 mm
12:47 PM 73.9°F23.3°C 20.1°F-6.6°C 13% 5.0 mph SSE8.0 kmh SSE -- 29.98 in1015.2 mb 0.00 in0.0 mm 0.00 in0.0 mm 0.00 in0.0 mm
12:46 PM 74.8°F23.8°C 20.8°F-6.2°C 13% 8.0 mph S12.9 kmh S -- 29.98 in1015.2 mb 0.00 in0.0 mm 0.00 in0.0 mm 0.00 in0.0 mm
12:45 PM 74.6°F23.7°C 20.6°F-6.3°C 13% 5.0 mph S8.0 kmh S -- 29.98 in1015.2 mb 0.00 in0.0 mm 0.00 in0.0 mm 0.00 in0.0 mm
12:44 PM 74.6°F23.7°C 20.6°F-6.3°C 13% 5.0 mph SW8.0 kmh SW -- 29.98 in1015.2 mb 0.00 in0.0 mm 0.00 in0.0 mm 0.00 in0.0 mm
12:43 PM 74.0°F23.3°C 23.4°F-4.8°C 15% 6.0 mph WSW9.7 kmh WSW -- 29.98 in1015.2 mb 0.00 in0.0 mm 0.00 in0.0 mm 0.00 in0.0 mm
12:42 PM 73.4°F23.0°C 19.6°F-6.9°C 13% 8.0 mph SE12.9 kmh SE -- 29.98 in1015.2 mb 0.00 in0.0 mm 0.00 in0.0 mm 0.00 in0.0 mm
12:41 PM 73.1°F22.8°C 19.3°F-7.1°C 13% 7.0 mph SSE11.3 kmh SSE -- 29.98 in1015.2 mb 0.00 in0.0 mm 0.00 in0.0 mm 0.00 in0.0 mm
12:40 PM 73.8°F23.2°C 19.9°F-6.7°C 13% 5.0 mph SSE8.0 kmh SSE -- 29.98 in1015.2 mb 0.00 in0.0 mm 0.00 in0.0 mm 0.00 in0.0 mm
12:39 PM 74.0°F23.3°C 20.1°F-6.6°C 13% 8.0 mph SW12.9 kmh SW -- 29.98 in1015.2 mb 0.00 in0.0 mm 0.00 in0.0 mm 0.00 in0.0 mm
12:38 PM 74.3°F23.5°C 20.3°F-6.5°C 13% 5.0 mph S8.0 kmh S -- 29.98 in1015.2 mb 0.00 in0.0 mm 0.00 in0.0 mm 0.00 in0.0 mm
12:37 PM 74.6°F23.7°C 20.6°F-6.3°C 13% 6.0 mph S9.7 kmh S -- 29.99 in1015.6 mb 0.00 in0.0 mm 0.00 in0.0 mm 0.00 in0.0 mm
12:36 PM 74.0°F23.3°C 20.1°F-6.6°C 13% 7.0 mph WNW11.3 kmh WNW -- 29.99 in1015.6 mb 0.00 in0.0 mm 0.00 in0.0 mm 0.00 in0.0 mm
12:35 PM 74.6°F23.7°C 20.6°F-6.3°C 13% 9.0 mph W14.5 kmh W -- 29.98 in1015.2 mb 0.00 in0.0 mm 0.00 in0.0 mm 0.00 in0.0 mm
12:34 PM 74.6°F23.7°C 24.0°F-4.4°C 15% 5.0 mph WSW8.0 kmh WSW -- 29.98 in1015.2 mb 0.00 in0.0 mm 0.00 in0.0 mm 0.00 in0.0 mm
12:33 PM 74.4°F23.6°C 23.8°F-4.6°C 15% 3.0 mph ESE4.8 kmh ESE -- 29.98 in1015.2 mb 0.00 in0.0 mm 0.00 in0.0 mm 0.00 in0.0 mm
12:32 PM 73.8°F23.2°C 19.9°F-6.7°C 13% 3.0 mph W4.8 kmh W -- 29.99 in1015.6 mb 0.00 in0.0 mm 0.00 in0.0 mm 0.00 in0.0 mm
12:31 PM 74.8°F23.8°C 20.8°F-6.2°C 13% 3.0 mph NE4.8 kmh NE -- 29.99 in1015.6 mb 0.00 in0.0 mm 0.00 in0.0 mm 0.00 in0.0 mm
12:30 PM 75.0°F23.9°C 20.9°F-6.2°C 13% 5.0 mph W8.0 kmh W -- 29.99 in1015.6 mb 0.00 in0.0 mm 0.00 in0.0 mm 0.00 in0.0 mm
12:29 PM 74.6°F23.7°C 20.6°F-6.3°C 13% 3.0 mph WSW4.8 kmh WSW -- 29.99 in1015.6 mb 0.00 in0.0 mm 0.00 in0.0 mm 0.00 in0.0 mm
12:28 PM 75.5°F24.2°C 21.4°F-5.9°C 13% 5.0 mph W8.0 kmh W -- 29.99 in1015.6 mb 0.00 in0.0 mm 0.00 in0.0 mm 0.00 in0.0 mm
12:27 PM 75.3°F24.1°C 21.2°F-6.0°C 13% 9.0 mph W14.5 kmh W -- 29.99 in1015.6 mb 0.00 in0.0 mm 0.00 in0.0 mm 0.00 in0.0 mm
12:26 PM 74.6°F23.7°C 20.6°F-6.3°C 13% 8.0 mph W12.9 kmh W -- 29.99 in1015.6 mb 0.00 in0.0 mm 0.00 in0.0 mm 0.00 in0.0 mm
12:25 PM 74.6°F23.7°C 20.6°F-6.3°C 13% 5.0 mph W8.0 kmh W -- 29.99 in1015.6 mb 0.00 in0.0 mm 0.00 in0.0 mm 0.00 in0.0 mm
12:24 PM 74.3°F23.5°C 20.3°F-6.5°C 13% 4.0 mph NW6.4 kmh NW -- 29.99 in1015.6 mb 0.00 in0.0 mm 0.00 in0.0 mm 0.00 in0.0 mm
12:23 PM 73.8°F23.2°C 19.9°F-6.7°C 13% 3.0 mph W4.8 kmh W -- 29.99 in1015.6 mb 0.00 in0.0 mm 0.00 in0.0 mm 0.00 in0.0 mm
12:22 PM 74.0°F23.3°C 20.1°F-6.6°C 13% 4.0 mph WSW6.4 kmh WSW -- 29.99 in1015.6 mb 0.00 in0.0 mm 0.00 in0.0 mm 0.00 in0.0 mm
12:21 PM 73.5°F23.1°C 19.8°F-6.8°C 13% 8.0 mph WNW12.9 kmh WNW -- 30.00 in1015.9 mb 0.00 in0.0 mm 0.00 in0.0 mm 0.00 in0.0 mm
12:20 PM 73.1°F22.8°C 19.3°F-7.1°C 13% 5.0 mph WNW8.0 kmh WNW -- 30.00 in1015.9 mb 0.00 in0.0 mm 0.00 in0.0 mm 0.00 in0.0 mm
12:19 PM 72.6°F22.6°C 19.1°F-7.2°C 13% 7.0 mph NNW11.3 kmh NNW -- 29.99 in1015.6 mb 0.00 in0.0 mm 0.00 in0.0 mm 0.00 in0.0 mm
12:18 PM 72.5°F22.5°C 18.9°F-7.3°C 13% 2.0 mph WSW3.2 kmh WSW -- 29.99 in1015.6 mb 0.00 in0.0 mm 0.00 in0.0 mm 0.00 in0.0 mm
12:17 PM 73.4°F23.0°C 19.6°F-6.9°C 13% 4.0 mph W6.4 kmh W -- 30.00 in1015.9 mb 0.00 in0.0 mm 0.00 in0.0 mm 0.00 in0.0 mm
12:16 PM 73.5°F23.1°C 19.8°F-6.8°C 13% 9.0 mph WNW14.5 kmh WNW -- 30.00 in1015.9 mb 0.00 in0.0 mm 0.00 in0.0 mm 0.00 in0.0 mm
12:15 PM 73.8°F23.2°C 19.9°F-6.7°C 13% 12.0 mph WNW19.3 kmh WNW -- 30.00 in1015.9 mb 0.00 in0.0 mm 0.00 in0.0 mm 0.00 in0.0 mm
12:14 PM 74.4°F23.6°C 20.5°F-6.4°C 13% 11.0 mph W17.7 kmh W -- 30.00 in1015.9 mb 0.00 in0.0 mm 0.00 in0.0 mm 0.00 in0.0 mm
12:13 PM 74.3°F23.5°C 20.3°F-6.5°C 13% 11.0 mph NW17.7 kmh NW -- 30.00 in1015.9 mb 0.00 in0.0 mm 0.00 in0.0 mm 0.00 in0.0 mm
12:12 PM 73.8°F23.2°C 19.9°F-6.7°C 13% 7.0 mph SW11.3 kmh SW -- 30.00 in1015.9 mb 0.00 in0.0 mm 0.00 in0.0 mm 0.00 in0.0 mm
12:11 PM 74.4°F23.6°C 20.5°F-6.4°C 13% 5.0 mph NNW8.0 kmh NNW -- 30.00 in1015.9 mb 0.00 in0.0 mm 0.00 in0.0 mm 0.00 in0.0 mm
12:10 PM 74.6°F23.7°C 18.8°F-7.3°C 12% 3.0 mph E4.8 kmh E -- 30.00 in1015.9 mb 0.00 in0.0 mm 0.00 in0.0 mm 0.00 in0.0 mm
12:09 PM 74.6°F23.7°C 18.8°F-7.3°C 12% 7.0 mph W11.3 kmh W -- 30.00 in1015.9 mb 0.00 in0.0 mm 0.00 in0.0 mm 0.00 in0.0 mm
12:08 PM 74.6°F23.7°C 18.8°F-7.3°C 12% 6.0 mph W9.7 kmh W -- 30.00 in1015.9 mb 0.00 in0.0 mm 0.00 in0.0 mm 0.00 in0.0 mm
12:07 PM 74.6°F23.7°C 18.8°F-7.3°C 12% 6.0 mph NW9.7 kmh NW -- 30.00 in1015.9 mb 0.00 in0.0 mm 0.00 in0.0 mm 0.00 in0.0 mm
12:06 PM 75.3°F24.1°C 19.4°F-7.0°C 12% 8.0 mph W12.9 kmh W -- 30.00 in1015.9 mb 0.00 in0.0 mm 0.00 in0.0 mm 0.00 in0.0 mm
12:05 PM 75.3°F24.1°C 21.2°F-6.0°C 13% 10.0 mph WNW16.1 kmh WNW -- 30.00 in1015.9 mb 0.00 in0.0 mm 0.00 in0.0 mm 0.00 in0.0 mm
12:04 PM 75.0°F23.9°C 20.9°F-6.2°C 13% 5.0 mph WNW8.0 kmh WNW -- 30.00 in1015.9 mb 0.00 in0.0 mm 0.00 in0.0 mm 0.00 in0.0 mm
12:03 PM 74.0°F23.3°C 20.1°F-6.6°C 13% 4.0 mph WNW6.4 kmh WNW -- 30.00 in1015.9 mb 0.00 in0.0 mm 0.00 in0.0 mm 0.00 in0.0 mm
12:02 PM 73.8°F23.2°C 19.9°F-6.7°C 13% 3.0 mph SW4.8 kmh SW -- 30.00 in1015.9 mb 0.00 in0.0 mm 0.00 in0.0 mm 0.00 in0.0 mm
12:01 PM 73.8°F23.2°C 19.9°F-6.7°C 13% 4.0 mph W6.4 kmh W -- 30.00 in1015.9 mb 0.00 in0.0 mm 0.00 in0.0 mm 0.00 in0.0 mm
12:00 PM 73.9°F23.3°C 20.1°F-6.6°C 13% 7.0 mph W11.3 kmh W -- 30.00 in1015.9 mb 0.00 in0.0 mm 0.00 in0.0 mm 0.00 in0.0 mm
11:59 AM 73.8°F23.2°C 23.3°F-4.8°C 15% 9.0 mph W14.5 kmh W -- 30.00 in1015.9 mb 0.00 in0.0 mm 0.00 in0.0 mm 0.00 in0.0 mm
11:58 AM 73.4°F23.0°C 23.0°F-5.0°C 15% 9.0 mph WNW14.5 kmh WNW -- 30.00 in1015.9 mb 0.00 in0.0 mm 0.00 in0.0 mm 0.00 in0.0 mm
11:57 AM 73.0°F22.8°C 19.3°F-7.1°C 13% 12.0 mph W19.3 kmh W -- 30.01 in1016.3 mb 0.00 in0.0 mm 0.00 in0.0 mm 0.00 in0.0 mm
11:56 AM 73.0°F22.8°C 19.3°F-7.1°C 13% 13.0 mph W20.9 kmh W -- 30.01 in1016.3 mb 0.00 in0.0 mm 0.00 in0.0 mm 0.00 in0.0 mm
11:55 AM 73.0°F22.8°C 19.3°F-7.1°C 13% 9.0 mph W14.5 kmh W -- 30.01 in1016.3 mb 0.00 in0.0 mm 0.00 in0.0 mm 0.00 in0.0 mm
11:54 AM 72.5°F22.5°C 18.9°F-7.3°C 13% 7.0 mph WNW11.3 kmh WNW -- 30.00 in1015.9 mb 0.00 in0.0 mm 0.00 in0.0 mm 0.00 in0.0 mm
11:53 AM 72.3°F22.4°C 18.8°F-7.3°C 13% 5.0 mph W8.0 kmh W -- 30.01 in1016.3 mb 0.00 in0.0 mm 0.00 in0.0 mm 0.00 in0.0 mm
11:52 AM 71.9°F22.2°C 18.5°F-7.5°C 13% 6.0 mph W9.7 kmh W -- 30.01 in1016.3 mb 0.00 in0.0 mm 0.00 in0.0 mm 0.00 in0.0 mm
11:51 AM 72.1°F22.3°C 16.8°F-8.4°C 12% 3.0 mph W4.8 kmh W -- 30.00 in1015.9 mb 0.00 in0.0 mm 0.00 in0.0 mm 0.00 in0.0 mm
11:50 AM 73.0°F22.8°C 17.5°F-8.1°C 12% 5.0 mph SW8.0 kmh SW -- 30.01 in1016.3 mb 0.00 in0.0 mm 0.00 in0.0 mm 0.00 in0.0 mm
11:49 AM 73.9°F23.3°C 18.2°F-7.7°C 12% 5.0 mph W8.0 kmh W -- 30.01 in1016.3 mb 0.00 in0.0 mm 0.00 in0.0 mm 0.00 in0.0 mm
11:48 AM 73.8°F23.2°C 19.9°F-6.7°C 13% 6.0 mph WNW9.7 kmh WNW -- 30.01 in1016.3 mb 0.00 in0.0 mm 0.00 in0.0 mm 0.00 in0.0 mm
11:47 AM 73.5°F23.1°C 19.8°F-6.8°C 13% 8.0 mph W12.9 kmh W -- 30.01 in1016.3 mb 0.00 in0.0 mm 0.00 in0.0 mm 0.00 in0.0 mm
11:46 AM 73.0°F22.8°C 19.3°F-7.1°C 13% 6.0 mph NNW9.7 kmh NNW -- 30.01 in1016.3 mb 0.00 in0.0 mm 0.00 in0.0 mm 0.00 in0.0 mm
11:45 AM 72.8°F22.7°C 19.2°F-7.1°C 13% 6.0 mph NW9.7 kmh NW -- 30.00 in1015.9 mb 0.00 in0.0 mm 0.00 in0.0 mm 0.00 in0.0 mm
11:44 AM 72.6°F22.6°C 19.1°F-7.2°C 13% 7.0 mph WNW11.3 kmh WNW -- 30.01 in1016.3 mb 0.00 in0.0 mm 0.00 in0.0 mm 0.00 in0.0 mm
11:43 AM 72.6°F22.6°C 19.1°F-7.2°C 13% 9.0 mph WNW14.5 kmh WNW -- 30.01 in1016.3 mb 0.00 in0.0 mm 0.00 in0.0 mm 0.00 in0.0 mm
11:42 AM 72.3°F22.4°C 18.8°F-7.3°C 13% 7.0 mph W11.3 kmh W -- 30.01 in1016.3 mb 0.00 in0.0 mm 0.00 in0.0 mm 0.00 in0.0 mm
11:41 AM 71.8°F22.1°C 18.3°F-7.6°C 13% 6.0 mph WNW9.7 kmh WNW -- 30.01 in1016.3 mb 0.00 in0.0 mm 0.00 in0.0 mm 0.00 in0.0 mm
11:40 AM 71.9°F22.2°C 18.5°F-7.5°C 13% 3.0 mph W4.8 kmh W -- 30.01 in1016.3 mb 0.00 in0.0 mm 0.00 in0.0 mm 0.00 in0.0 mm
11:39 AM 72.6°F22.6°C 19.1°F-7.2°C 13% 4.0 mph NW6.4 kmh NW -- 30.01 in1016.3 mb 0.00 in0.0 mm 0.00 in0.0 mm 0.00 in0.0 mm
11:38 AM 72.6°F22.6°C 19.1°F-7.2°C 13% 5.0 mph WNW8.0 kmh WNW -- 30.01 in1016.3 mb 0.00 in0.0 mm 0.00 in0.0 mm 0.00 in0.0 mm
11:37 AM 72.8°F22.7°C 19.2°F-7.1°C 13% 2.0 mph SSW3.2 kmh SSW -- 30.01 in1016.3 mb 0.00 in0.0 mm 0.00 in0.0 mm 0.00 in0.0 mm
11:36 AM 73.5°F23.1°C 19.8°F-6.8°C 13% 7.0 mph NNW11.3 kmh NNW -- 30.01 in1016.3 mb 0.00 in0.0 mm 0.00 in0.0 mm 0.00 in0.0 mm
11:35 AM 73.8°F23.2°C 19.9°F-6.7°C 13% 8.0 mph NW12.9 kmh NW -- 30.01 in1016.3 mb 0.00 in0.0 mm 0.00 in0.0 mm 0.00 in0.0 mm
11:34 AM 73.8°F23.2°C 19.9°F-6.7°C 13% 11.0 mph WNW17.7 kmh WNW -- 30.02 in1016.6 mb 0.00 in0.0 mm 0.00 in0.0 mm 0.00 in0.0 mm
11:33 AM 73.0°F22.8°C 19.3°F-7.1°C 13% 4.0 mph W6.4 kmh W -- 30.01 in1016.3 mb 0.00 in0.0 mm 0.00 in0.0 mm 0.00 in0.0 mm
11:32 AM 73.1°F22.8°C 17.5°F-8.1°C 12% 3.0 mph WNW4.8 kmh WNW -- 30.01 in1016.3 mb 0.00 in0.0 mm 0.00 in0.0 mm 0.00 in0.0 mm
11:31 AM 73.0°F22.8°C 17.5°F-8.1°C 12% 4.0 mph NNW6.4 kmh NNW -- 30.01 in1016.3 mb 0.00 in0.0 mm 0.00 in0.0 mm 0.00 in0.0 mm
11:29 AM 72.6°F22.6°C 17.2°F-8.2°C 12% 7.0 mph W11.3 kmh W -- 30.01 in1016.3 mb 0.00 in0.0 mm 0.00 in0.0 mm 0.00 in0.0 mm
11:28 AM 72.8°F22.7°C 17.4°F-8.1°C 12% 10.0 mph W16.1 kmh W -- 30.01 in1016.3 mb 0.00 in0.0 mm 0.00 in0.0 mm 0.00 in0.0 mm
11:27 AM 73.4°F23.0°C 17.8°F-7.9°C 12% 9.0 mph W14.5 kmh W -- 30.02 in1016.6 mb 0.00 in0.0 mm 0.00 in0.0 mm 0.00 in0.0 mm
11:26 AM 73.5°F23.1°C 17.9°F-7.8°C 12% 6.0 mph W9.7 kmh W -- 30.02 in1016.6 mb 0.00 in0.0 mm 0.00 in0.0 mm 0.00 in0.0 mm
11:25 AM 73.4°F23.0°C 19.6°F-6.9°C 13% 9.0 mph WNW14.5 kmh WNW -- 30.02 in1016.6 mb 0.00 in0.0 mm 0.00 in0.0 mm 0.00 in0.0 mm
11:24 AM 73.4°F23.0°C 17.8°F-7.9°C 12% 10.0 mph NW16.1 kmh NW -- 30.01 in1016.3 mb 0.00 in0.0 mm 0.00 in0.0 mm 0.00 in0.0 mm
11:23 AM 73.8°F23.2°C 18.1°F-7.7°C 12% 8.0 mph NW12.9 kmh NW -- 30.01 in1016.3 mb 0.00 in0.0 mm 0.00 in0.0 mm 0.00 in0.0 mm
11:22 AM 74.3°F23.5°C 20.3°F-6.5°C 13% 10.0 mph NNW16.1 kmh NNW -- 30.02 in1016.6 mb 0.00 in0.0 mm 0.00 in0.0 mm 0.00 in0.0 mm
11:21 AM 74.8°F23.8°C 20.8°F-6.2°C 13% 7.0 mph W11.3 kmh W -- 30.01 in1016.3 mb 0.00 in0.0 mm 0.00 in0.0 mm 0.00 in0.0 mm
11:20 AM 73.9°F23.3°C 18.2°F-7.7°C 12% 7.0 mph NNW11.3 kmh NNW -- 30.01 in1016.3 mb 0.00 in0.0 mm 0.00 in0.0 mm 0.00 in0.0 mm
11:19 AM 73.9°F23.3°C 18.2°F-7.7°C 12% 8.0 mph 12.9 kmh -- 30.01 in1016.3 mb 0.00 in0.0 mm 0.00 in0.0 mm 0.00 in0.0 mm
11:18 AM 73.0°F22.8°C 17.5°F-8.1°C 12% 4.0 mph WNW6.4 kmh WNW -- 30.01 in1016.3 mb 0.00 in0.0 mm 0.00 in0.0 mm 0.00 in0.0 mm
11:17 AM 73.0°F22.8°C 17.5°F-8.1°C 12% 7.0 mph W11.3 kmh W -- 30.02 in1016.6 mb 0.00 in0.0 mm 0.00 in0.0 mm 0.00 in0.0 mm
11:16 AM 72.6°F22.6°C 17.2°F-8.2°C 12% 4.0 mph WSW6.4 kmh WSW -- 30.02 in1016.6 mb 0.00 in0.0 mm 0.00 in0.0 mm 0.00 in0.0 mm
11:15 AM 72.5°F22.5°C 17.1°F-8.3°C 12% 3.0 mph W4.8 kmh W -- 30.01 in1016.3 mb 0.00 in0.0 mm 0.00 in0.0 mm 0.00 in0.0 mm
11:14 AM 73.1°F22.8°C 17.5°F-8.1°C 12% 3.0 mph W4.8 kmh W -- 30.01 in1016.3 mb 0.00 in0.0 mm 0.00 in0.0 mm 0.00 in0.0 mm
11:13 AM 72.5°F22.5°C 17.1°F-8.3°C 12% 6.0 mph NNW9.7 kmh NNW -- 30.02 in1016.6 mb 0.00 in0.0 mm 0.00 in0.0 mm 0.00 in0.0 mm
11:12 AM 71.4°F21.9°C 16.2°F-8.8°C 12% 1.0 mph SSE1.6 kmh SSE -- 30.02 in1016.6 mb 0.00 in0.0 mm 0.00 in0.0 mm 0.00 in0.0 mm
11:11 AM 72.8°F22.7°C 17.4°F-8.1°C 12% 5.0 mph W8.0 kmh W -- 30.02 in1016.6 mb 0.00 in0.0 mm 0.00 in0.0 mm 0.00 in0.0 mm
11:10 AM 73.5°F23.1°C 17.9°F-7.8°C 12% 5.0 mph W8.0 kmh W -- 30.02 in1016.6 mb 0.00 in0.0 mm 0.00 in0.0 mm 0.00 in0.0 mm
11:09 AM 73.4°F23.0°C 17.8°F-7.9°C 12% 6.0 mph W9.7 kmh W -- 30.02 in1016.6 mb 0.00 in0.0 mm 0.00 in0.0 mm 0.00 in0.0 mm
11:08 AM 74.0°F23.3°C 18.2°F-7.7°C 12% 4.0 mph WNW6.4 kmh WNW -- 30.02 in1016.6 mb 0.00 in0.0 mm 0.00 in0.0 mm 0.00 in0.0 mm
11:07 AM 74.3°F23.5°C 18.5°F-7.5°C 12% 7.0 mph W11.3 kmh W -- 30.02 in1016.6 mb 0.00 in0.0 mm 0.00 in0.0 mm 0.00 in0.0 mm
11:06 AM 74.4°F23.6°C 18.6°F-7.4°C 12% 10.0 mph 16.1 kmh -- 30.02 in1016.6 mb 0.00 in0.0 mm 0.00 in0.0 mm 0.00 in0.0 mm
11:05 AM 74.0°F23.3°C 18.2°F-7.7°C 12% 5.0 mph W8.0 kmh W -- 30.02 in1016.6 mb 0.00 in0.0 mm 0.00 in0.0 mm 0.00 in0.0 mm
11:04 AM 73.0°F22.8°C 17.5°F-8.1°C 12% 8.0 mph W12.9 kmh W -- 30.02 in1016.6 mb 0.00 in0.0 mm 0.00 in0.0 mm 0.00 in0.0 mm
11:03 AM 72.6°F22.6°C 17.2°F-8.2°C 12% 3.0 mph W4.8 kmh W -- 30.02 in1016.6 mb 0.00 in0.0 mm 0.00 in0.0 mm 0.00 in0.0 mm
11:02 AM 72.8°F22.7°C 17.4°F-8.1°C 12% 4.0 mph W6.4 kmh W -- 30.02 in1016.6 mb 0.00 in0.0 mm 0.00 in0.0 mm 0.00 in0.0 mm
11:01 AM 73.8°F23.2°C 18.1°F-7.7°C 12% 11.0 mph W17.7 kmh W -- 30.02 in1016.6 mb 0.00 in0.0 mm 0.00 in0.0 mm 0.00 in0.0 mm
11:00 AM 73.4°F23.0°C 17.8°F-7.9°C 12% 8.0 mph W12.9 kmh W -- 30.02 in1016.6 mb 0.00 in0.0 mm 0.00 in0.0 mm 0.00 in0.0 mm
10:59 AM 73.5°F23.1°C 17.9°F-7.8°C 12% 11.0 mph W17.7 kmh W -- 30.02 in1016.6 mb 0.00 in0.0 mm 0.00 in0.0 mm 0.00 in0.0 mm
10:58 AM 73.9°F23.3°C 18.2°F-7.7°C 12% 11.0 mph W17.7 kmh W -- 30.02 in1016.6 mb 0.00 in0.0 mm 0.00 in0.0 mm 0.00 in0.0 mm
10:57 AM 74.0°F23.3°C 18.2°F-7.7°C 12% 8.0 mph W12.9 kmh W -- 30.02 in1016.6 mb 0.00 in0.0 mm 0.00 in0.0 mm 0.00 in0.0 mm
10:56 AM 74.3°F23.5°C 18.5°F-7.5°C 12% 8.0 mph SSW12.9 kmh SSW -- 30.02 in1016.6 mb 0.00 in0.0 mm 0.00 in0.0 mm 0.00 in0.0 mm
10:55 AM 73.9°F23.3°C 18.2°F-7.7°C 12% 6.0 mph W9.7 kmh W -- 30.02 in1016.6 mb 0.00 in0.0 mm 0.00 in0.0 mm 0.00 in0.0 mm
10:54 AM 74.8°F23.8°C 18.9°F-7.3°C 12% 4.0 mph W6.4 kmh W -- 30.02 in1016.6 mb 0.00 in0.0 mm 0.00 in0.0 mm 0.00 in0.0 mm
10:53 AM 75.0°F23.9°C 19.1°F-7.2°C 12% 8.0 mph WNW12.9 kmh WNW -- 30.02 in1016.6 mb 0.00 in0.0 mm 0.00 in0.0 mm 0.00 in0.0 mm
10:52 AM 75.1°F23.9°C 19.1°F-7.2°C 12% 11.0 mph WNW17.7 kmh WNW -- 30.02 in1016.6 mb 0.00 in0.0 mm 0.00 in0.0 mm 0.00 in0.0 mm
10:51 AM 75.0°F23.9°C 19.1°F-7.2°C 12% 12.0 mph W19.3 kmh W -- 30.02 in1016.6 mb 0.00 in0.0 mm 0.00 in0.0 mm 0.00 in0.0 mm
10:50 AM 73.5°F23.1°C 17.9°F-7.8°C 12% 11.0 mph NW17.7 kmh NW -- 30.02 in1016.6 mb 0.00 in0.0 mm 0.00 in0.0 mm 0.00 in0.0 mm
10:49 AM 73.9°F23.3°C 16.2°F-8.8°C 11% Calm Calm -- 30.02 in1016.6 mb 0.00 in0.0 mm 0.00 in0.0 mm 0.00 in0.0 mm
10:48 AM 74.6°F23.7°C 16.8°F-8.4°C 11% 2.0 mph NNW3.2 kmh NNW -- 30.02 in1016.6 mb 0.00 in0.0 mm 0.00 in0.0 mm 0.00 in0.0 mm
10:47 AM 75.3°F24.1°C 19.4°F-7.0°C 12% 6.0 mph NW9.7 kmh NW -- 30.02 in1016.6 mb 0.00 in0.0 mm 0.00 in0.0 mm 0.00 in0.0 mm
10:46 AM 75.5°F24.2°C 19.5°F-6.9°C 12% 6.0 mph NW9.7 kmh NW -- 30.02 in1016.6 mb 0.00 in0.0 mm 0.00 in0.0 mm 0.00 in0.0 mm
10:45 AM 75.3°F24.1°C 19.4°F-7.0°C 12% 6.0 mph NNW9.7 kmh NNW -- 30.02 in1016.6 mb 0.00 in0.0 mm 0.00 in0.0 mm 0.00 in0.0 mm
10:44 AM 74.6°F23.7°C 18.8°F-7.3°C 12% 5.0 mph NW8.0 kmh NW -- 30.02 in1016.6 mb 0.00 in0.0 mm 0.00 in0.0 mm 0.00 in0.0 mm
10:43 AM 74.3°F23.5°C 18.5°F-7.5°C 12% 6.0 mph NW9.7 kmh NW -- 30.02 in1016.6 mb 0.00 in0.0 mm 0.00 in0.0 mm 0.00 in0.0 mm
10:42 AM 73.9°F23.3°C 18.2°F-7.7°C 12% 9.0 mph NNE14.5 kmh NNE -- 30.02 in1016.6 mb 0.00 in0.0 mm 0.00 in0.0 mm 0.00 in0.0 mm
10:41 AM 72.8°F22.7°C 17.4°F-8.1°C 12% 3.0 mph 4.8 kmh -- 30.02 in1016.6 mb 0.00 in0.0 mm 0.00 in0.0 mm 0.00 in0.0 mm
10:40 AM 74.6°F23.7°C 16.8°F-8.4°C 11% 2.0 mph 3.2 kmh -- 30.02 in1016.6 mb 0.00 in0.0 mm 0.00 in0.0 mm 0.00 in0.0 mm
10:39 AM 75.1°F23.9°C 17.1°F-8.3°C 11% 7.0 mph W11.3 kmh W -- 30.03 in1016.9 mb 0.00 in0.0 mm 0.00 in0.0 mm 0.00 in0.0 mm
10:38 AM 74.8°F23.8°C 18.9°F-7.3°C 12% 9.0 mph NW14.5 kmh NW -- 30.03 in1016.9 mb 0.00 in0.0 mm 0.00 in0.0 mm 0.00 in0.0 mm
10:37 AM 74.0°F23.3°C 16.2°F-8.8°C 11% 5.0 mph 8.0 kmh -- 30.03 in1016.9 mb 0.00 in0.0 mm 0.00 in0.0 mm 0.00 in0.0 mm
10:36 AM 73.5°F23.1°C 15.9°F-8.9°C 11% 4.0 mph NNW6.4 kmh NNW -- 30.03 in1016.9 mb 0.00 in0.0 mm 0.00 in0.0 mm 0.00 in0.0 mm
10:35 AM 72.8°F22.7°C 15.4°F-9.2°C 11% 2.0 mph NNW3.2 kmh NNW -- 30.02 in1016.6 mb 0.00 in0.0 mm 0.00 in0.0 mm 0.00 in0.0 mm
10:34 AM 71.5°F21.9°C 16.2°F-8.8°C 12% 3.0 mph NNE4.8 kmh NNE -- 30.02 in1016.6 mb 0.00 in0.0 mm 0.00 in0.0 mm 0.00 in0.0 mm
10:33 AM 72.1°F22.3°C 16.8°F-8.4°C 12% 1.0 mph W1.6 kmh W -- 30.03 in1016.9 mb 0.00 in0.0 mm 0.00 in0.0 mm 0.00 in0.0 mm
10:32 AM 73.4°F23.0°C 15.8°F-9.0°C 11% 3.0 mph W4.8 kmh W -- 30.03 in1016.9 mb 0.00 in0.0 mm 0.00 in0.0 mm 0.00 in0.0 mm
10:31 AM 73.5°F23.1°C 15.9°F-8.9°C 11% 4.0 mph W6.4 kmh W -- 30.03 in1016.9 mb 0.00 in0.0 mm 0.00 in0.0 mm 0.00 in0.0 mm
10:30 AM 72.6°F22.6°C 17.2°F-8.2°C 12% 3.0 mph W4.8 kmh W -- 30.03 in1016.9 mb 0.00 in0.0 mm 0.00 in0.0 mm 0.00 in0.0 mm
10:29 AM 72.1°F22.3°C 16.8°F-8.4°C 12% 3.0 mph WSW4.8 kmh WSW -- 30.03 in1016.9 mb 0.00 in0.0 mm 0.00 in0.0 mm 0.00 in0.0 mm
10:28 AM 73.1°F22.8°C 17.5°F-8.1°C 12% 3.0 mph WSW4.8 kmh WSW -- 30.03 in1016.9 mb 0.00 in0.0 mm 0.00 in0.0 mm 0.00 in0.0 mm
10:27 AM 73.0°F22.8°C 17.5°F-8.1°C 12% 4.0 mph WNW6.4 kmh WNW -- 30.03 in1016.9 mb 0.00 in0.0 mm 0.00 in0.0 mm 0.00 in0.0 mm
10:26 AM 73.1°F22.8°C 15.5°F-9.2°C 11% 4.0 mph NNW6.4 kmh NNW -- 30.03 in1016.9 mb 0.00 in0.0 mm 0.00 in0.0 mm 0.00 in0.0 mm
10:25 AM 73.1°F22.8°C 15.5°F-9.2°C 11% 6.0 mph NNW9.7 kmh NNW -- 30.03 in1016.9 mb 0.00 in0.0 mm 0.00 in0.0 mm 0.00 in0.0 mm
10:24 AM 73.1°F22.8°C 15.5°F-9.2°C 11% 6.0 mph 9.7 kmh -- 30.03 in1016.9 mb 0.00 in0.0 mm 0.00 in0.0 mm 0.00 in0.0 mm
10:23 AM 74.3°F23.5°C 16.5°F-8.6°C 11% 6.0 mph WNW9.7 kmh WNW -- 30.03 in1016.9 mb 0.00 in0.0 mm 0.00 in0.0 mm 0.00 in0.0 mm
10:22 AM 74.3°F23.5°C 18.5°F-7.5°C 12% 6.0 mph W9.7 kmh W -- 30.03 in1016.9 mb 0.00 in0.0 mm 0.00 in0.0 mm 0.00 in0.0 mm
10:21 AM 73.8°F23.2°C 18.1°F-7.7°C 12% 5.0 mph NNW8.0 kmh NNW -- 30.03 in1016.9 mb 0.00 in0.0 mm 0.00 in0.0 mm 0.00 in0.0 mm
10:20 AM 73.9°F23.3°C 18.2°F-7.7°C 12% 4.0 mph WNW6.4 kmh WNW -- 30.03 in1016.9 mb 0.00 in0.0 mm 0.00 in0.0 mm 0.00 in0.0 mm
10:19 AM 73.8°F23.2°C 18.1°F-7.7°C 12% 6.0 mph NNE9.7 kmh NNE -- 30.03 in1016.9 mb 0.00 in0.0 mm 0.00 in0.0 mm 0.00 in0.0 mm
10:18 AM 73.4°F23.0°C 17.8°F-7.9°C 12% 4.0 mph 6.4 kmh -- 30.03 in1016.9 mb 0.00 in0.0 mm 0.00 in0.0 mm 0.00 in0.0 mm
10:17 AM 72.6°F22.6°C 17.2°F-8.2°C 12% 4.0 mph NE6.4 kmh NE -- 30.03 in1016.9 mb 0.00 in0.0 mm 0.00 in0.0 mm 0.00 in0.0 mm
10:16 AM 72.6°F22.6°C 17.2°F-8.2°C 12% 1.0 mph W1.6 kmh W -- 30.03 in1016.9 mb 0.00 in0.0 mm 0.00 in0.0 mm 0.00 in0.0 mm
10:15 AM 72.6°F22.6°C 15.2°F-9.3°C 11% 3.0 mph ENE4.8 kmh ENE -- 30.03 in1016.9 mb 0.00 in0.0 mm 0.00 in0.0 mm 0.00 in0.0 mm
10:14 AM 71.8°F22.1°C 14.5°F-9.7°C 11% 4.0 mph ESE6.4 kmh ESE -- 30.03 in1016.9 mb 0.00 in0.0 mm 0.00 in0.0 mm 0.00 in0.0 mm
10:13 AM 70.9°F21.6°C 13.8°F-10.1°C 11% 2.0 mph ESE3.2 kmh ESE -- 30.03 in1016.9 mb 0.00 in0.0 mm 0.00 in0.0 mm 0.00 in0.0 mm
10:12 AM 70.6°F21.4°C 11.4°F-11.4°C 10% Calm Calm -- 30.03 in1016.9 mb 0.00 in0.0 mm 0.00 in0.0 mm 0.00 in0.0 mm
10:11 AM 71.9°F22.2°C 12.5°F-10.8°C 10% 3.0 mph SSE4.8 kmh SSE -- 30.03 in1016.9 mb 0.00 in0.0 mm 0.00 in0.0 mm 0.00 in0.0 mm
10:10 AM 72.5°F22.5°C 13.0°F-10.6°C 10% 2.0 mph NNE3.2 kmh NNE -- 30.04 in1017.3 mb 0.00 in0.0 mm 0.00 in0.0 mm 0.00 in0.0 mm
10:09 AM 71.8°F22.1°C 12.4°F-10.9°C 10% 3.0 mph ENE4.8 kmh ENE -- 30.03 in1016.9 mb 0.00 in0.0 mm 0.00 in0.0 mm 0.00 in0.0 mm
10:08 AM 71.5°F21.9°C 12.1°F-11.1°C 10% 3.0 mph NNE4.8 kmh NNE -- 30.03 in1016.9 mb 0.00 in0.0 mm 0.00 in0.0 mm 0.00 in0.0 mm
10:07 AM 71.5°F21.9°C 12.1°F-11.1°C 10% 4.0 mph NNE6.4 kmh NNE -- 30.03 in1016.9 mb 0.00 in0.0 mm 0.00 in0.0 mm 0.00 in0.0 mm
10:06 AM 71.1°F21.7°C 14.0°F-10.0°C 11% 4.0 mph E6.4 kmh E -- 30.03 in1016.9 mb 0.00 in0.0 mm 0.00 in0.0 mm 0.00 in0.0 mm
10:05 AM 70.9°F21.6°C 15.8°F-9.0°C 12% 3.0 mph NNE4.8 kmh NNE -- 30.03 in1016.9 mb 0.00 in0.0 mm 0.00 in0.0 mm 0.00 in0.0 mm
10:04 AM 70.9°F21.6°C 15.8°F-9.0°C 12% 4.0 mph 6.4 kmh -- 30.03 in1016.9 mb 0.00 in0.0 mm 0.00 in0.0 mm 0.00 in0.0 mm
10:03 AM 69.6°F20.9°C 14.8°F-9.6°C 12% 4.0 mph 6.4 kmh -- 30.03 in1016.9 mb 0.00 in0.0 mm 0.00 in0.0 mm 0.00 in0.0 mm
10:02 AM 71.0°F21.7°C 14.0°F-10.0°C 11% 5.0 mph SW8.0 kmh SW -- 30.03 in1016.9 mb 0.00 in0.0 mm 0.00 in0.0 mm 0.00 in0.0 mm
10:01 AM 71.1°F21.7°C 14.0°F-10.0°C 11% 4.0 mph SW6.4 kmh SW -- 30.03 in1016.9 mb 0.00 in0.0 mm 0.00 in0.0 mm 0.00 in0.0 mm
10:00 AM 71.1°F21.7°C 14.0°F-10.0°C 11% 5.0 mph WNW8.0 kmh WNW -- 30.03 in1016.9 mb 0.00 in0.0 mm 0.00 in0.0 mm 0.00 in0.0 mm
09:59 AM 71.1°F21.7°C 14.0°F-10.0°C 11% 5.0 mph NNW8.0 kmh NNW -- 30.03 in1016.9 mb 0.00 in0.0 mm 0.00 in0.0 mm 0.00 in0.0 mm
09:58 AM 71.8°F22.1°C 14.5°F-9.7°C 11% 6.0 mph NW9.7 kmh NW -- 30.03 in1016.9 mb 0.00 in0.0 mm 0.00 in0.0 mm 0.00 in0.0 mm
09:57 AM 71.5°F21.9°C 16.2°F-8.8°C 12% 5.0 mph WNW8.0 kmh WNW -- 30.03 in1016.9 mb 0.00 in0.0 mm 0.00 in0.0 mm 0.00 in0.0 mm
09:56 AM 70.9°F21.6°C 15.8°F-9.0°C 12% 7.0 mph NW11.3 kmh NW -- 30.03 in1016.9 mb 0.00 in0.0 mm 0.00 in0.0 mm 0.00 in0.0 mm
09:55 AM 70.3°F21.3°C 15.4°F-9.2°C 12% 3.0 mph WSW4.8 kmh WSW -- 30.03 in1016.9 mb 0.00 in0.0 mm 0.00 in0.0 mm 0.00 in0.0 mm
09:54 AM 70.6°F21.4°C 15.5°F-9.2°C 12% 2.0 mph WNW3.2 kmh WNW -- 30.03 in1016.9 mb 0.00 in0.0 mm 0.00 in0.0 mm 0.00 in0.0 mm
09:53 AM 71.5°F21.9°C 16.2°F-8.8°C 12% 5.0 mph WNW8.0 kmh WNW -- 30.04 in1017.3 mb 0.00 in0.0 mm 0.00 in0.0 mm 0.00 in0.0 mm
09:52 AM 71.5°F21.9°C 16.2°F-8.8°C 12% 4.0 mph NW6.4 kmh NW -- 30.03 in1016.9 mb 0.00 in0.0 mm 0.00 in0.0 mm 0.00 in0.0 mm
09:51 AM 70.5°F21.4°C 15.5°F-9.2°C 12% 7.0 mph NNE11.3 kmh NNE -- 30.03 in1016.9 mb 0.00 in0.0 mm 0.00 in0.0 mm 0.00 in0.0 mm
09:50 AM 69.8°F21.0°C 13.0°F-10.6°C 11% 4.0 mph NE6.4 kmh NE -- 30.03 in1016.9 mb 0.00 in0.0 mm 0.00 in0.0 mm 0.00 in0.0 mm
09:49 AM 70.1°F21.2°C 13.3°F-10.4°C 11% 2.0 mph WNW3.2 kmh WNW -- 30.04 in1017.3 mb 0.00 in0.0 mm 0.00 in0.0 mm 0.00 in0.0 mm
09:48 AM 70.6°F21.4°C 15.5°F-9.2°C 12% 6.0 mph NNW9.7 kmh NNW -- 30.04 in1017.3 mb 0.00 in0.0 mm 0.00 in0.0 mm 0.00 in0.0 mm
09:47 AM 70.9°F21.6°C 15.8°F-9.0°C 12% 4.0 mph W6.4 kmh W -- 30.04 in1017.3 mb 0.00 in0.0 mm 0.00 in0.0 mm 0.00 in0.0 mm
09:46 AM 70.6°F21.4°C 15.5°F-9.2°C 12% 6.0 mph NNW9.7 kmh NNW -- 30.04 in1017.3 mb 0.00 in0.0 mm 0.00 in0.0 mm 0.00 in0.0 mm
09:45 AM 70.3°F21.3°C 15.4°F-9.2°C 12% 4.0 mph NW6.4 kmh NW -- 30.04 in1017.3 mb 0.00 in0.0 mm 0.00 in0.0 mm 0.00 in0.0 mm
09:44 AM 70.0°F21.1°C 15.1°F-9.4°C 12% 3.0 mph NW4.8 kmh NW -- 30.04 in1017.3 mb 0.00 in0.0 mm 0.00 in0.0 mm 0.00 in0.0 mm
09:43 AM 69.8°F21.0°C 14.9°F-9.5°C 12% 4.0 mph NW6.4 kmh NW -- 30.04 in1017.3 mb 0.00 in0.0 mm 0.00 in0.0 mm 0.00 in0.0 mm
09:42 AM 69.4°F20.8°C 14.7°F-9.6°C 12% 5.0 mph NNE8.0 kmh NNE -- 30.04 in1017.3 mb 0.00 in0.0 mm 0.00 in0.0 mm 0.00 in0.0 mm
09:41 AM 69.6°F20.9°C 14.8°F-9.6°C 12% 6.0 mph NNE9.7 kmh NNE -- 30.04 in1017.3 mb 0.00 in0.0 mm 0.00 in0.0 mm 0.00 in0.0 mm
09:40 AM 69.8°F21.0°C 14.9°F-9.5°C 12% 6.0 mph 9.7 kmh -- 30.04 in1017.3 mb 0.00 in0.0 mm 0.00 in0.0 mm 0.00 in0.0 mm
09:39 AM 69.6°F20.9°C 14.8°F-9.6°C 12% 7.0 mph 11.3 kmh -- 30.04 in1017.3 mb 0.00 in0.0 mm 0.00 in0.0 mm 0.00 in0.0 mm
09:38 AM 69.3°F20.7°C 14.5°F-9.7°C 12% 6.0 mph NNE9.7 kmh NNE -- 30.04 in1017.3 mb 0.00 in0.0 mm 0.00 in0.0 mm 0.00 in0.0 mm
09:37 AM 69.3°F20.7°C 14.5°F-9.7°C 12% 5.0 mph NNW8.0 kmh NNW -- 30.03 in1016.9 mb 0.00 in0.0 mm 0.00 in0.0 mm 0.00 in0.0 mm
09:36 AM 69.8°F21.0°C 14.9°F-9.5°C 12% 7.0 mph 11.3 kmh -- 30.03 in1016.9 mb 0.00 in0.0 mm 0.00 in0.0 mm 0.00 in0.0 mm
09:35 AM 69.6°F20.9°C 14.8°F-9.6°C 12% 10.0 mph 16.1 kmh -- 30.04 in1017.3 mb 0.00 in0.0 mm 0.00 in0.0 mm 0.00 in0.0 mm
09:34 AM 69.3°F20.7°C 14.5°F-9.7°C 12% 7.0 mph NE11.3 kmh NE -- 30.04 in1017.3 mb 0.00 in0.0 mm 0.00 in0.0 mm 0.00 in0.0 mm
09:33 AM 69.0°F20.6°C 14.4°F-9.8°C 12% 6.0 mph NW9.7 kmh NW -- 30.04 in1017.3 mb 0.00 in0.0 mm 0.00 in0.0 mm 0.00 in0.0 mm
09:32 AM 69.3°F20.7°C 14.5°F-9.7°C 12% 6.0 mph NW9.7 kmh NW -- 30.04 in1017.3 mb 0.00 in0.0 mm 0.00 in0.0 mm 0.00 in0.0 mm
09:31 AM 69.4°F20.8°C 14.7°F-9.6°C 12% 7.0 mph NNW11.3 kmh NNW -- 30.04 in1017.3 mb 0.00 in0.0 mm 0.00 in0.0 mm 0.00 in0.0 mm
09:30 AM 69.3°F20.7°C 14.5°F-9.7°C 12% 8.0 mph NNW12.9 kmh NNW -- 30.04 in1017.3 mb 0.00 in0.0 mm 0.00 in0.0 mm 0.00 in0.0 mm
09:28 AM 69.0°F20.6°C 14.4°F-9.8°C 12% 5.0 mph 8.0 kmh -- 30.04 in1017.3 mb 0.00 in0.0 mm 0.00 in0.0 mm 0.00 in0.0 mm
09:27 AM 69.0°F20.6°C 14.4°F-9.8°C 12% 6.0 mph NNE9.7 kmh NNE -- 30.03 in1016.9 mb 0.00 in0.0 mm 0.00 in0.0 mm 0.00 in0.0 mm
09:26 AM 69.0°F20.6°C 14.4°F-9.8°C 12% 8.0 mph NNW12.9 kmh NNW -- 30.03 in1016.9 mb 0.00 in0.0 mm 0.00 in0.0 mm 0.00 in0.0 mm
09:25 AM 69.0°F20.6°C 14.4°F-9.8°C 12% 8.0 mph NNE12.9 kmh NNE -- 30.04 in1017.3 mb 0.00 in0.0 mm 0.00 in0.0 mm 0.00 in0.0 mm
09:24 AM 68.9°F20.5°C 14.2°F-9.9°C 12% 5.0 mph WNW8.0 kmh WNW -- 30.04 in1017.3 mb 0.00 in0.0 mm 0.00 in0.0 mm 0.00 in0.0 mm
09:23 AM 68.9°F20.5°C 14.2°F-9.9°C 12% 6.0 mph 9.7 kmh -- 30.04 in1017.3 mb 0.00 in0.0 mm 0.00 in0.0 mm 0.00 in0.0 mm
09:22 AM 68.9°F20.5°C 14.2°F-9.9°C 12% 7.0 mph NNW11.3 kmh NNW -- 30.03 in1016.9 mb 0.00 in0.0 mm 0.00 in0.0 mm 0.00 in0.0 mm
09:21 AM 68.6°F20.3°C 13.9°F-10.1°C 12% 8.0 mph NW12.9 kmh NW -- 30.04 in1017.3 mb 0.00 in0.0 mm 0.00 in0.0 mm 0.00 in0.0 mm
09:20 AM 68.4°F20.2°C 13.8°F-10.1°C 12% 5.0 mph NNW8.0 kmh NNW -- 30.03 in1016.9 mb 0.00 in0.0 mm 0.00 in0.0 mm 0.00 in0.0 mm
09:19 AM 68.6°F20.3°C 13.9°F-10.1°C 12% 6.0 mph 9.7 kmh -- 30.04 in1017.3 mb 0.00 in0.0 mm 0.00 in0.0 mm 0.00 in0.0 mm
09:18 AM 68.6°F20.3°C 13.9°F-10.1°C 12% 6.0 mph NNW9.7 kmh NNW -- 30.04 in1017.3 mb 0.00 in0.0 mm 0.00 in0.0 mm 0.00 in0.0 mm
09:17 AM 68.4°F20.2°C 15.6°F-9.1°C 13% 10.0 mph NNE16.1 kmh NNE -- 30.04 in1017.3 mb 0.00 in0.0 mm 0.00 in0.0 mm 0.00 in0.0 mm
09:16 AM 68.4°F20.2°C 15.6°F-9.1°C 13% 3.0 mph NW4.8 kmh NW -- 30.04 in1017.3 mb 0.00 in0.0 mm 0.00 in0.0 mm 0.00 in0.0 mm
09:15 AM 68.4°F20.2°C 15.6°F-9.1°C 13% 5.0 mph WNW8.0 kmh WNW -- 30.04 in1017.3 mb 0.00 in0.0 mm 0.00 in0.0 mm 0.00 in0.0 mm
09:14 AM 68.1°F20.1°C 13.7°F-10.2°C 12% 5.0 mph NNW8.0 kmh NNW -- 30.04 in1017.3 mb 0.00 in0.0 mm 0.00 in0.0 mm 0.00 in0.0 mm
09:13 AM 68.1°F20.1°C 13.7°F-10.2°C 12% 9.0 mph 14.5 kmh -- 30.04 in1017.3 mb 0.00 in0.0 mm 0.00 in0.0 mm 0.00 in0.0 mm
09:12 AM 68.1°F20.1°C 13.7°F-10.2°C 12% 7.0 mph NW11.3 kmh NW -- 30.04 in1017.3 mb 0.00 in0.0 mm 0.00 in0.0 mm 0.00 in0.0 mm
09:11 AM 68.0°F20.0°C 13.5°F-10.3°C 12% 9.0 mph NW14.5 kmh NW -- 30.04 in1017.3 mb 0.00 in0.0 mm 0.00 in0.0 mm 0.00 in0.0 mm
09:10 AM 67.8°F19.9°C 13.4°F-10.3°C 12% 8.0 mph NNW12.9 kmh NNW -- 30.04 in1017.3 mb 0.00 in0.0 mm 0.00 in0.0 mm 0.00 in0.0 mm
09:09 AM 68.0°F20.0°C 13.5°F-10.3°C 12% 8.0 mph NW12.9 kmh NW -- 30.04 in1017.3 mb 0.00 in0.0 mm 0.00 in0.0 mm 0.00 in0.0 mm
09:08 AM 67.8°F19.9°C 13.4°F-10.3°C 12% 4.0 mph NW6.4 kmh NW -- 30.04 in1017.3 mb 0.00 in0.0 mm 0.00 in0.0 mm 0.00 in0.0 mm
09:07 AM 67.8°F19.9°C 13.4°F-10.3°C 12% 7.0 mph NW11.3 kmh NW -- 30.04 in1017.3 mb 0.00 in0.0 mm 0.00 in0.0 mm 0.00 in0.0 mm
09:06 AM 67.8°F19.9°C 13.4°F-10.3°C 12% 8.0 mph NNW12.9 kmh NNW -- 30.04 in1017.3 mb 0.00 in0.0 mm 0.00 in0.0 mm 0.00 in0.0 mm
09:05 AM 67.8°F19.9°C 15.2°F-9.3°C 13% 9.0 mph NNW14.5 kmh NNW -- 30.04 in1017.3 mb 0.00 in0.0 mm 0.00 in0.0 mm 0.00 in0.0 mm
09:04 AM 67.8°F19.9°C 15.2°F-9.3°C 13% 6.0 mph 9.7 kmh -- 30.04 in1017.3 mb 0.00 in0.0 mm 0.00 in0.0 mm 0.00 in0.0 mm
09:03 AM 68.1°F20.1°C 15.5°F-9.2°C 13% 7.0 mph NNW11.3 kmh NNW -- 30.04 in1017.3 mb 0.00 in0.0 mm 0.00 in0.0 mm 0.00 in0.0 mm
09:02 AM 67.8°F19.9°C 18.5°F-7.5°C 15% 6.0 mph NW9.7 kmh NW -- 30.04 in1017.3 mb 0.00 in0.0 mm 0.00 in0.0 mm 0.00 in0.0 mm
09:01 AM 67.6°F19.8°C 18.3°F-7.6°C 15% 6.0 mph WNW9.7 kmh WNW -- 30.04 in1017.3 mb 0.00 in0.0 mm 0.00 in0.0 mm 0.00 in0.0 mm
09:00 AM 67.6°F19.8°C 18.3°F-7.6°C 15% 8.0 mph WNW12.9 kmh WNW -- 30.04 in1017.3 mb 0.00 in0.0 mm 0.00 in0.0 mm 0.00 in0.0 mm
08:59 AM 67.6°F19.8°C 18.3°F-7.6°C 15% 4.0 mph 6.4 kmh -- 30.04 in1017.3 mb 0.00 in0.0 mm 0.00 in0.0 mm 0.00 in0.0 mm
08:58 AM 67.6°F19.8°C 18.3°F-7.6°C 15% 7.0 mph W11.3 kmh W -- 30.04 in1017.3 mb 0.00 in0.0 mm 0.00 in0.0 mm 0.00 in0.0 mm
08:57 AM 67.6°F19.8°C 18.3°F-7.6°C 15% 9.0 mph WNW14.5 kmh WNW -- 30.05 in1017.6 mb 0.00 in0.0 mm 0.00 in0.0 mm 0.00 in0.0 mm
08:56 AM 67.5°F19.7°C 18.2°F-7.7°C 15% 5.0 mph NW8.0 kmh NW -- 30.04 in1017.3 mb 0.00 in0.0 mm 0.00 in0.0 mm 0.00 in0.0 mm
08:55 AM 67.1°F19.5°C 17.9°F-7.8°C 15% 4.0 mph W6.4 kmh W -- 30.04 in1017.3 mb 0.00 in0.0 mm 0.00 in0.0 mm 0.00 in0.0 mm
08:54 AM 66.9°F19.4°C 17.7°F-7.9°C 15% 8.0 mph NW12.9 kmh NW -- 30.04 in1017.3 mb 0.00 in0.0 mm 0.00 in0.0 mm 0.00 in0.0 mm
08:53 AM 66.6°F19.2°C 17.4°F-8.1°C 15% 8.0 mph WNW12.9 kmh WNW -- 30.04 in1017.3 mb 0.00 in0.0 mm 0.00 in0.0 mm 0.00 in0.0 mm
08:52 AM 66.6°F19.2°C 17.4°F-8.1°C 15% 10.0 mph W16.1 kmh W -- 30.04 in1017.3 mb 0.00 in0.0 mm 0.00 in0.0 mm 0.00 in0.0 mm
08:51 AM 66.6°F19.2°C 17.4°F-8.1°C 15% 14.0 mph NNW22.5 kmh NNW -- 30.04 in1017.3 mb 0.00 in0.0 mm 0.00 in0.0 mm 0.00 in0.0 mm
08:50 AM 66.5°F19.2°C 17.4°F-8.1°C 15% 7.0 mph W11.3 kmh W -- 30.04 in1017.3 mb 0.00 in0.0 mm 0.00 in0.0 mm 0.00 in0.0 mm
08:49 AM 66.5°F19.2°C 20.3°F-6.5°C 17% 7.0 mph W11.3 kmh W -- 30.04 in1017.3 mb 0.00 in0.0 mm 0.00 in0.0 mm 0.00 in0.0 mm
08:48 AM 66.4°F19.1°C 20.2°F-6.6°C 17% 9.0 mph NNW14.5 kmh NNW -- 30.04 in1017.3 mb 0.00 in0.0 mm 0.00 in0.0 mm 0.00 in0.0 mm
08:47 AM 66.1°F18.9°C 19.9°F-6.7°C 17% 7.0 mph WNW11.3 kmh WNW -- 30.04 in1017.3 mb 0.00 in0.0 mm 0.00 in0.0 mm 0.00 in0.0 mm
08:46 AM 65.9°F18.8°C 19.7°F-6.8°C 17% 6.0 mph NNW9.7 kmh NNW -- 30.04 in1017.3 mb 0.00 in0.0 mm 0.00 in0.0 mm 0.00 in0.0 mm
08:45 AM 65.9°F18.8°C 19.7°F-6.8°C 17% 10.0 mph WNW16.1 kmh WNW -- 30.04 in1017.3 mb 0.00 in0.0 mm 0.00 in0.0 mm 0.00 in0.0 mm
08:44 AM 65.9°F18.8°C 19.7°F-6.8°C 17% 7.0 mph W11.3 kmh W -- 30.04 in1017.3 mb 0.00 in0.0 mm 0.00 in0.0 mm 0.00 in0.0 mm
08:43 AM 65.6°F18.7°C 22.2°F-5.4°C 19% 7.0 mph NW11.3 kmh NW -- 30.04 in1017.3 mb 0.00 in0.0 mm 0.00 in0.0 mm 0.00 in0.0 mm
08:42 AM 65.5°F18.6°C 23.3°F-4.8°C 20% 8.0 mph NW12.9 kmh NW -- 30.04 in1017.3 mb 0.00 in0.0 mm 0.00 in0.0 mm 0.00 in0.0 mm
08:41 AM 64.9°F18.3°C 22.8°F-5.1°C 20% 7.0 mph W11.3 kmh W -- 30.04 in1017.3 mb 0.00 in0.0 mm 0.00 in0.0 mm 0.00 in0.0 mm
08:40 AM 64.8°F18.2°C 22.6°F-5.2°C 20% 4.0 mph NW6.4 kmh NW -- 30.04 in1017.3 mb 0.00 in0.0 mm 0.00 in0.0 mm 0.00 in0.0 mm
08:39 AM 64.6°F18.1°C 22.5°F-5.3°C 20% 7.0 mph WNW11.3 kmh WNW -- 30.04 in1017.3 mb 0.00 in0.0 mm 0.00 in0.0 mm 0.00 in0.0 mm
08:38 AM 64.1°F17.8°C 20.8°F-6.2°C 19% 7.0 mph W11.3 kmh W -- 30.04 in1017.3 mb 0.00 in0.0 mm 0.00 in0.0 mm 0.00 in0.0 mm
08:37 AM 63.9°F17.7°C 20.7°F-6.3°C 19% 8.0 mph W12.9 kmh W -- 30.04 in1017.3 mb 0.00 in0.0 mm 0.00 in0.0 mm 0.00 in0.0 mm
08:36 AM 63.9°F17.7°C 20.7°F-6.3°C 19% 8.0 mph NW12.9 kmh NW -- 30.04 in1017.3 mb 0.00 in0.0 mm 0.00 in0.0 mm 0.00 in0.0 mm
08:35 AM 63.9°F17.7°C 20.7°F-6.3°C 19% 9.0 mph W14.5 kmh W -- 30.04 in1017.3 mb 0.00 in0.0 mm 0.00 in0.0 mm 0.00 in0.0 mm
08:34 AM 63.9°F17.7°C 20.7°F-6.3°C 19% 10.0 mph WNW16.1 kmh WNW -- 30.04 in1017.3 mb 0.00 in0.0 mm 0.00 in0.0 mm 0.00 in0.0 mm
08:33 AM 63.9°F17.7°C 20.7°F-6.3°C 19% 8.0 mph WNW12.9 kmh WNW -- 30.04 in1017.3 mb 0.00 in0.0 mm 0.00 in0.0 mm 0.00 in0.0 mm
08:32 AM 63.6°F17.6°C 21.7°F-5.7°C 20% 6.0 mph W9.7 kmh W -- 30.04 in1017.3 mb 0.00 in0.0 mm 0.00 in0.0 mm 0.00 in0.0 mm
08:31 AM 63.6°F17.6°C 21.7°F-5.7°C 20% 7.0 mph WNW11.3 kmh WNW -- 30.04 in1017.3 mb 0.00 in0.0 mm 0.00 in0.0 mm 0.00 in0.0 mm
08:30 AM 63.9°F17.7°C 21.9°F-5.6°C 20% 6.0 mph W9.7 kmh W -- 30.04 in1017.3 mb 0.00 in0.0 mm 0.00 in0.0 mm 0.00 in0.0 mm
08:29 AM 63.9°F17.7°C 21.9°F-5.6°C 20% 4.0 mph WNW6.4 kmh WNW -- 30.05 in1017.6 mb 0.00 in0.0 mm 0.00 in0.0 mm 0.00 in0.0 mm
08:28 AM 63.9°F17.7°C 21.9°F-5.6°C 20% 7.0 mph NW11.3 kmh NW -- 30.05 in1017.6 mb 0.00 in0.0 mm 0.00 in0.0 mm 0.00 in0.0 mm
08:27 AM 63.4°F17.4°C 21.4°F-5.9°C 20% 6.0 mph NNW9.7 kmh NNW -- 30.05 in1017.6 mb 0.00 in0.0 mm 0.00 in0.0 mm 0.00 in0.0 mm
08:26 AM 63.2°F17.3°C 21.3°F-5.9°C 20% 8.0 mph WNW12.9 kmh WNW -- 30.04 in1017.3 mb 0.00 in0.0 mm 0.00 in0.0 mm 0.00 in0.0 mm
08:25 AM 63.0°F17.2°C 21.1°F-6.1°C 20% 3.0 mph NW4.8 kmh NW -- 30.05 in1017.6 mb 0.00 in0.0 mm 0.00 in0.0 mm 0.00 in0.0 mm
08:24 AM 63.0°F17.2°C 21.1°F-6.1°C 20% 4.0 mph NW6.4 kmh NW -- 30.05 in1017.6 mb 0.00 in0.0 mm 0.00 in0.0 mm 0.00 in0.0 mm
08:23 AM 63.0°F17.2°C 21.1°F-6.1°C 20% 8.0 mph 12.9 kmh -- 30.05 in1017.6 mb 0.00 in0.0 mm 0.00 in0.0 mm 0.00 in0.0 mm
08:22 AM 63.2°F17.3°C 21.3°F-5.9°C 20% 11.0 mph NW17.7 kmh NW -- 30.05 in1017.6 mb 0.00 in0.0 mm 0.00 in0.0 mm 0.00 in0.0 mm
08:21 AM 63.0°F17.2°C 21.1°F-6.1°C 20% 6.0 mph 9.7 kmh -- 30.05 in1017.6 mb 0.00 in0.0 mm 0.00 in0.0 mm 0.00 in0.0 mm
08:20 AM 63.0°F17.2°C 21.1°F-6.1°C 20% 5.0 mph WNW8.0 kmh WNW -- 30.04 in1017.3 mb 0.00 in0.0 mm 0.00 in0.0 mm 0.00 in0.0 mm
08:19 AM 62.7°F17.1°C 21.0°F-6.1°C 20% 6.0 mph WNW9.7 kmh WNW -- 30.04 in1017.3 mb 0.00 in0.0 mm 0.00 in0.0 mm 0.00 in0.0 mm
08:18 AM 62.7°F17.1°C 23.2°F-4.9°C 22% 6.0 mph WNW9.7 kmh WNW -- 30.04 in1017.3 mb 0.00 in0.0 mm 0.00 in0.0 mm 0.00 in0.0 mm
08:17 AM 62.5°F16.9°C 22.9°F-5.1°C 22% 5.0 mph NNW8.0 kmh NNW -- 30.05 in1017.6 mb 0.00 in0.0 mm 0.00 in0.0 mm 0.00 in0.0 mm
08:16 AM 62.5°F16.9°C 20.7°F-6.3°C 20% 2.0 mph NNW3.2 kmh NNW -- 30.04 in1017.3 mb 0.00 in0.0 mm 0.00 in0.0 mm 0.00 in0.0 mm
08:15 AM 62.5°F16.9°C 20.7°F-6.3°C 20% 5.0 mph NNW8.0 kmh NNW -- 30.04 in1017.3 mb 0.00 in0.0 mm 0.00 in0.0 mm 0.00 in0.0 mm
08:14 AM 62.5°F16.9°C 20.7°F-6.3°C 20% 6.0 mph WNW9.7 kmh WNW -- 30.04 in1017.3 mb 0.00 in0.0 mm 0.00 in0.0 mm 0.00 in0.0 mm
08:13 AM 62.5°F16.9°C 20.7°F-6.3°C 20% 8.0 mph WNW12.9 kmh WNW -- 30.05 in1017.6 mb 0.00 in0.0 mm 0.00 in0.0 mm 0.00 in0.0 mm
08:12 AM 62.5°F16.9°C 20.7°F-6.3°C 20% 5.0 mph W8.0 kmh W -- 30.04 in1017.3 mb 0.00 in0.0 mm 0.00 in0.0 mm 0.00 in0.0 mm
08:11 AM 62.4°F16.9°C 20.7°F-6.3°C 20% 6.0 mph WNW9.7 kmh WNW -- 30.04 in1017.3 mb 0.00 in0.0 mm 0.00 in0.0 mm 0.00 in0.0 mm
08:10 AM 62.2°F16.8°C 22.8°F-5.1°C 22% 5.0 mph NW8.0 kmh NW -- 30.04 in1017.3 mb 0.00 in0.0 mm 0.00 in0.0 mm 0.00 in0.0 mm
08:09 AM 62.1°F16.7°C 22.6°F-5.2°C 22% 7.0 mph 11.3 kmh -- 30.04 in1017.3 mb 0.00 in0.0 mm 0.00 in0.0 mm 0.00 in0.0 mm
08:08 AM 61.9°F16.6°C 22.5°F-5.3°C 22% 6.0 mph 9.7 kmh -- 30.04 in1017.3 mb 0.00 in0.0 mm 0.00 in0.0 mm 0.00 in0.0 mm
08:07 AM 61.9°F16.6°C 22.5°F-5.3°C 22% 5.0 mph NW8.0 kmh NW -- 30.04 in1017.3 mb 0.00 in0.0 mm 0.00 in0.0 mm 0.00 in0.0 mm
08:06 AM 61.7°F16.5°C 22.3°F-5.4°C 22% 6.0 mph W9.7 kmh W -- 30.04 in1017.3 mb 0.00 in0.0 mm 0.00 in0.0 mm 0.00 in0.0 mm
08:05 AM 61.7°F16.5°C 22.3°F-5.4°C 22% 8.0 mph NW12.9 kmh NW -- 30.04 in1017.3 mb 0.00 in0.0 mm 0.00 in0.0 mm 0.00 in0.0 mm
08:04 AM 61.5°F16.4°C 22.2°F-5.4°C 22% 6.0 mph NW9.7 kmh NW -- 30.04 in1017.3 mb 0.00 in0.0 mm 0.00 in0.0 mm 0.00 in0.0 mm
08:03 AM 61.1°F16.2°C 21.9°F-5.6°C 22% 6.0 mph WNW9.7 kmh WNW -- 30.05 in1017.6 mb 0.00 in0.0 mm 0.00 in0.0 mm 0.00 in0.0 mm
08:02 AM 61.0°F16.1°C 21.7°F-5.7°C 22% 4.0 mph WNW6.4 kmh WNW -- 30.04 in1017.3 mb 0.00 in0.0 mm 0.00 in0.0 mm 0.00 in0.0 mm
08:01 AM 61.0°F16.1°C 21.7°F-5.7°C 22% 5.0 mph NW8.0 kmh NW -- 30.05 in1017.6 mb 0.00 in0.0 mm 0.00 in0.0 mm 0.00 in0.0 mm
08:00 AM 60.3°F15.7°C 23.2°F-4.9°C 24% 3.0 mph NNW4.8 kmh NNW -- 30.04 in1017.3 mb 0.00 in0.0 mm 0.00 in0.0 mm 0.00 in0.0 mm
07:59 AM 60.0°F15.6°C 23.0°F-5.0°C 24% 3.0 mph WNW4.8 kmh WNW -- 30.05 in1017.6 mb 0.00 in0.0 mm 0.00 in0.0 mm 0.00 in0.0 mm
07:58 AM 59.7°F15.4°C 23.7°F-4.6°C 25% 3.0 mph W4.8 kmh W -- 30.04 in1017.3 mb 0.00 in0.0 mm 0.00 in0.0 mm 0.00 in0.0 mm
07:57 AM 59.9°F15.5°C 23.8°F-4.6°C 25% 2.0 mph W3.2 kmh W -- 30.04 in1017.3 mb 0.00 in0.0 mm 0.00 in0.0 mm 0.00 in0.0 mm
07:56 AM 60.0°F15.6°C 23.0°F-5.0°C 24% 4.0 mph W6.4 kmh W -- 30.04 in1017.3 mb 0.00 in0.0 mm 0.00 in0.0 mm 0.00 in0.0 mm
07:55 AM 60.0°F15.6°C 21.0°F-6.1°C 22% 5.0 mph NW8.0 kmh NW -- 30.04 in1017.3 mb 0.00 in0.0 mm 0.00 in0.0 mm 0.00 in0.0 mm
07:54 AM 59.9°F15.5°C 20.8°F-6.2°C 22% 5.0 mph WNW8.0 kmh WNW -- 30.04 in1017.3 mb 0.00 in0.0 mm 0.00 in0.0 mm 0.00 in0.0 mm
07:53 AM 60.2°F15.7°C 21.1°F-6.1°C 22% 4.0 mph W6.4 kmh W -- 30.04 in1017.3 mb 0.00 in0.0 mm 0.00 in0.0 mm 0.00 in0.0 mm
07:52 AM 60.3°F15.7°C 21.1°F-6.1°C 22% 4.0 mph WNW6.4 kmh WNW -- 30.04 in1017.3 mb 0.00 in0.0 mm 0.00 in0.0 mm 0.00 in0.0 mm
07:51 AM 60.2°F15.7°C 21.1°F-6.1°C 22% 4.0 mph WNW6.4 kmh WNW -- 30.04 in1017.3 mb 0.00 in0.0 mm 0.00 in0.0 mm 0.00 in0.0 mm
07:50 AM 59.9°F15.5°C 23.8°F-4.6°C 25% 3.0 mph W4.8 kmh W -- 30.04 in1017.3 mb 0.00 in0.0 mm 0.00 in0.0 mm 0.00 in0.0 mm
07:49 AM 59.7°F15.4°C 22.7°F-5.2°C 24% 2.0 mph 3.2 kmh -- 30.04 in1017.3 mb 0.00 in0.0 mm 0.00 in0.0 mm 0.00 in0.0 mm
07:48 AM 59.4°F15.2°C 22.4°F-5.3°C 24% 3.0 mph WNW4.8 kmh WNW -- 30.04 in1017.3 mb 0.00 in0.0 mm 0.00 in0.0 mm 0.00 in0.0 mm
07:47 AM 59.3°F15.2°C 22.4°F-5.3°C 24% 4.0 mph W6.4 kmh W -- 30.04 in1017.3 mb 0.00 in0.0 mm 0.00 in0.0 mm 0.00 in0.0 mm
07:46 AM 59.3°F15.2°C 22.4°F-5.3°C 24% 2.0 mph NW3.2 kmh NW -- 30.04 in1017.3 mb 0.00 in0.0 mm 0.00 in0.0 mm 0.00 in0.0 mm
07:45 AM 59.3°F15.2°C 22.4°F-5.3°C 24% 5.0 mph NW8.0 kmh NW -- 30.05 in1017.6 mb 0.00 in0.0 mm 0.00 in0.0 mm 0.00 in0.0 mm
07:44 AM 59.0°F15.0°C 23.1°F-4.9°C 25% 4.0 mph WNW6.4 kmh WNW -- 30.04 in1017.3 mb 0.00 in0.0 mm 0.00 in0.0 mm 0.00 in0.0 mm
07:43 AM 59.0°F15.0°C 23.1°F-4.9°C 25% 4.0 mph W6.4 kmh W -- 30.04 in1017.3 mb 0.00 in0.0 mm 0.00 in0.0 mm 0.00 in0.0 mm
07:42 AM 58.8°F14.9°C 22.9°F-5.1°C 25% 2.0 mph SW3.2 kmh SW -- 30.04 in1017.3 mb 0.00 in0.0 mm 0.00 in0.0 mm 0.00 in0.0 mm
07:41 AM 58.8°F14.9°C 24.7°F-4.1°C 27% 3.0 mph W4.8 kmh W -- 30.05 in1017.6 mb 0.00 in0.0 mm 0.00 in0.0 mm 0.00 in0.0 mm
07:40 AM 58.8°F14.9°C 22.9°F-5.1°C 25% 3.0 mph W4.8 kmh W -- 30.04 in1017.3 mb 0.00 in0.0 mm 0.00 in0.0 mm 0.00 in0.0 mm
07:39 AM 58.5°F14.7°C 22.6°F-5.2°C 25% 3.0 mph WNW4.8 kmh WNW -- 30.05 in1017.6 mb 0.00 in0.0 mm 0.00 in0.0 mm 0.00 in0.0 mm
07:38 AM 58.2°F14.6°C 22.4°F-5.3°C 25% 4.0 mph WNW6.4 kmh WNW -- 30.05 in1017.6 mb 0.00 in0.0 mm 0.00 in0.0 mm 0.00 in0.0 mm
07:37 AM 58.0°F14.4°C 22.1°F-5.5°C 25% 3.0 mph W4.8 kmh W -- 30.05 in1017.6 mb 0.00 in0.0 mm 0.00 in0.0 mm 0.00 in0.0 mm
07:36 AM 58.0°F14.4°C 22.1°F-5.5°C 25% 2.0 mph NW3.2 kmh NW -- 30.04 in1017.3 mb 0.00 in0.0 mm 0.00 in0.0 mm 0.00 in0.0 mm
07:35 AM 57.7°F14.3°C 23.8°F-4.6°C 27% 3.0 mph W4.8 kmh W -- 30.04 in1017.3 mb 0.00 in0.0 mm 0.00 in0.0 mm 0.00 in0.0 mm
07:34 AM 57.5°F14.2°C 23.7°F-4.6°C 27% 4.0 mph W6.4 kmh W -- 30.04 in1017.3 mb 0.00 in0.0 mm 0.00 in0.0 mm 0.00 in0.0 mm
07:33 AM 57.3°F14.1°C 23.5°F-4.7°C 27% 2.0 mph W3.2 kmh W -- 30.04 in1017.3 mb 0.00 in0.0 mm 0.00 in0.0 mm 0.00 in0.0 mm
07:32 AM 57.2°F14.0°C 23.3°F-4.8°C 27% 3.0 mph WNW4.8 kmh WNW -- 30.04 in1017.3 mb 0.00 in0.0 mm 0.00 in0.0 mm 0.00 in0.0 mm
07:31 AM 57.2°F14.0°C 21.5°F-5.8°C 25% 3.0 mph WNW4.8 kmh WNW -- 30.04 in1017.3 mb 0.00 in0.0 mm 0.00 in0.0 mm 0.00 in0.0 mm
07:30 AM 57.2°F14.0°C 21.5°F-5.8°C 25% 3.0 mph W4.8 kmh W -- 30.04 in1017.3 mb 0.00 in0.0 mm 0.00 in0.0 mm 0.00 in0.0 mm
07:29 AM 57.2°F14.0°C 23.3°F-4.8°C 27% 5.0 mph W8.0 kmh W -- 30.04 in1017.3 mb 0.00 in0.0 mm 0.00 in0.0 mm 0.00 in0.0 mm
07:28 AM 57.2°F14.0°C 21.5°F-5.8°C 25% 4.0 mph W6.4 kmh W -- 30.04 in1017.3 mb 0.00 in0.0 mm 0.00 in0.0 mm 0.00 in0.0 mm
07:27 AM 57.2°F14.0°C 21.5°F-5.8°C 25% 5.0 mph WSW8.0 kmh WSW -- 30.04 in1017.3 mb 0.00 in0.0 mm 0.00 in0.0 mm 0.00 in0.0 mm
07:26 AM 56.9°F13.8°C 21.2°F-6.0°C 25% 5.0 mph W8.0 kmh W -- 30.04 in1017.3 mb 0.00 in0.0 mm 0.00 in0.0 mm 0.00 in0.0 mm
07:25 AM 56.9°F13.8°C 21.2°F-6.0°C 25% 4.0 mph W6.4 kmh W -- 30.04 in1017.3 mb 0.00 in0.0 mm 0.00 in0.0 mm 0.00 in0.0 mm
07:24 AM 56.7°F13.7°C 21.1°F-6.1°C 25% 4.0 mph W6.4 kmh W -- 30.04 in1017.3 mb 0.00 in0.0 mm 0.00 in0.0 mm 0.00 in0.0 mm
07:23 AM 56.5°F13.6°C 22.7°F-5.2°C 27% 4.0 mph WSW6.4 kmh WSW -- 30.05 in1017.6 mb 0.00 in0.0 mm 0.00 in0.0 mm 0.00 in0.0 mm
07:22 AM 56.3°F13.5°C 22.6°F-5.2°C 27% 4.0 mph W6.4 kmh W -- 30.04 in1017.3 mb 0.00 in0.0 mm 0.00 in0.0 mm 0.00 in0.0 mm
07:21 AM 56.0°F13.3°C 22.3°F-5.4°C 27% 4.0 mph W6.4 kmh W -- 30.05 in1017.6 mb 0.00 in0.0 mm 0.00 in0.0 mm 0.00 in0.0 mm
07:20 AM 55.9°F13.3°C 22.3°F-5.4°C 27% 4.0 mph W6.4 kmh W -- 30.04 in1017.3 mb 0.00 in0.0 mm 0.00 in0.0 mm 0.00 in0.0 mm
07:19 AM 55.9°F13.3°C 24.0°F-4.4°C 29% 3.0 mph WSW4.8 kmh WSW -- 30.04 in1017.3 mb 0.00 in0.0 mm 0.00 in0.0 mm 0.00 in0.0 mm
07:18 AM 55.5°F13.1°C 23.6°F-4.7°C 29% 5.0 mph W8.0 kmh W -- 30.04 in1017.3 mb 0.00 in0.0 mm 0.00 in0.0 mm 0.00 in0.0 mm
07:17 AM 55.1°F12.8°C 23.2°F-4.9°C 29% 6.0 mph W9.7 kmh W -- 30.04 in1017.3 mb 0.00 in0.0 mm 0.00 in0.0 mm 0.00 in0.0 mm
07:16 AM 55.0°F12.8°C 23.2°F-4.9°C 29% 4.0 mph W6.4 kmh W -- 30.04 in1017.3 mb 0.00 in0.0 mm 0.00 in0.0 mm 0.00 in0.0 mm
07:15 AM 54.9°F12.7°C 23.8°F-4.6°C 30% 5.0 mph W8.0 kmh W -- 30.04 in1017.3 mb 0.00 in0.0 mm 0.00 in0.0 mm 0.00 in0.0 mm
07:14 AM 54.4°F12.4°C 23.3°F-4.8°C 30% 5.0 mph W8.0 kmh W -- 30.04 in1017.3 mb 0.00 in0.0 mm 0.00 in0.0 mm 0.00 in0.0 mm
07:13 AM 54.2°F12.3°C 23.2°F-4.9°C 30% 5.0 mph SW8.0 kmh SW -- 30.03 in1016.9 mb 0.00 in0.0 mm 0.00 in0.0 mm 0.00 in0.0 mm
07:12 AM 54.0°F12.2°C 23.0°F-5.0°C 30% 4.0 mph W6.4 kmh W -- 30.04 in1017.3 mb 0.00 in0.0 mm 0.00 in0.0 mm 0.00 in0.0 mm
07:11 AM 54.0°F12.2°C 23.0°F-5.0°C 30% 4.0 mph NW6.4 kmh NW -- 30.04 in1017.3 mb 0.00 in0.0 mm 0.00 in0.0 mm 0.00 in0.0 mm
07:10 AM 53.8°F12.1°C 23.7°F-4.6°C 31% 4.0 mph W6.4 kmh W -- 30.04 in1017.3 mb 0.00 in0.0 mm 0.00 in0.0 mm 0.00 in0.0 mm
07:09 AM 53.4°F11.9°C 24.1°F-4.4°C 32% 5.0 mph W8.0 kmh W -- 30.04 in1017.3 mb 0.00 in0.0 mm 0.00 in0.0 mm 0.00 in0.0 mm
07:08 AM 53.2°F11.8°C 23.9°F-4.5°C 32% 3.0 mph W4.8 kmh W -- 30.03 in1016.9 mb 0.00 in0.0 mm 0.00 in0.0 mm 0.00 in0.0 mm
07:07 AM 53.1°F11.7°C 23.8°F-4.6°C 32% 4.0 mph W6.4 kmh W -- 30.04 in1017.3 mb 0.00 in0.0 mm 0.00 in0.0 mm 0.00 in0.0 mm
07:06 AM 52.8°F11.6°C 25.1°F-3.8°C 34% 3.0 mph W4.8 kmh W -- 30.04 in1017.3 mb 0.00 in0.0 mm 0.00 in0.0 mm 0.00 in0.0 mm
07:05 AM 52.8°F11.6°C 25.1°F-3.8°C 34% 3.0 mph WNW4.8 kmh WNW -- 30.04 in1017.3 mb 0.00 in0.0 mm 0.00 in0.0 mm 0.00 in0.0 mm
07:04 AM 52.6°F11.4°C 24.8°F-4.0°C 34% 4.0 mph W6.4 kmh W -- 30.03 in1016.9 mb 0.00 in0.0 mm 0.00 in0.0 mm 0.00 in0.0 mm
07:03 AM 52.5°F11.4°C 24.8°F-4.0°C 34% 4.0 mph W6.4 kmh W -- 30.03 in1016.9 mb 0.00 in0.0 mm 0.00 in0.0 mm 0.00 in0.0 mm
07:02 AM 52.3°F11.3°C 25.3°F-3.7°C 35% 3.0 mph W4.8 kmh W -- 30.03 in1016.9 mb 0.00 in0.0 mm 0.00 in0.0 mm 0.00 in0.0 mm
07:01 AM 51.9°F11.1°C 25.0°F-3.9°C 35% 5.0 mph W8.0 kmh W -- 30.04 in1017.3 mb 0.00 in0.0 mm 0.00 in0.0 mm 0.00 in0.0 mm
07:00 AM 51.4°F10.8°C 25.8°F-3.4°C 37% 4.0 mph W6.4 kmh W -- 30.03 in1016.9 mb 0.00 in0.0 mm 0.00 in0.0 mm 0.00 in0.0 mm
06:59 AM 51.3°F10.7°C 25.7°F-3.5°C 37% 4.0 mph W6.4 kmh W -- 30.04 in1017.3 mb 0.00 in0.0 mm 0.00 in0.0 mm 0.00 in0.0 mm
06:58 AM 50.7°F10.4°C 27.1°F-2.7°C 40% 3.0 mph W4.8 kmh W -- 30.04 in1017.3 mb 0.00 in0.0 mm 0.00 in0.0 mm 0.00 in0.0 mm
06:57 AM 50.3°F10.2°C 26.8°F-2.9°C 40% 3.0 mph WSW4.8 kmh WSW -- 30.04 in1017.3 mb 0.00 in0.0 mm 0.00 in0.0 mm 0.00 in0.0 mm
06:56 AM 50.1°F10.1°C 26.6°F-3.0°C 40% 3.0 mph W4.8 kmh W -- 30.04 in1017.3 mb 0.00 in0.0 mm 0.00 in0.0 mm 0.00 in0.0 mm
06:55 AM 49.6°F9.8°C 26.7°F-2.9°C 41% 4.0 mph SW6.4 kmh SW -- 30.04 in1017.3 mb 0.00 in0.0 mm 0.00 in0.0 mm 0.00 in0.0 mm
06:54 AM 49.2°F9.6°C 27.5°F-2.5°C 43% 3.0 mph W4.8 kmh W -- 30.03 in1016.9 mb 0.00 in0.0 mm 0.00 in0.0 mm 0.00 in0.0 mm
06:53 AM 48.6°F9.2°C 27.4°F-2.6°C 44% 4.0 mph W6.4 kmh W -- 30.04 in1017.3 mb 0.00 in0.0 mm 0.00 in0.0 mm 0.00 in0.0 mm
06:52 AM 48.2°F9.0°C 27.7°F-2.4°C 45% 3.0 mph WNW4.8 kmh WNW -- 30.04 in1017.3 mb 0.00 in0.0 mm 0.00 in0.0 mm 0.00 in0.0 mm
06:51 AM 47.7°F8.7°C 27.7°F-2.4°C 46% 2.0 mph W3.2 kmh W -- 30.04 in1017.3 mb 0.00 in0.0 mm 0.00 in0.0 mm 0.00 in0.0 mm
06:50 AM 47.6°F8.7°C 27.7°F-2.4°C 46% 3.0 mph W4.8 kmh W -- 30.04 in1017.3 mb 0.00 in0.0 mm 0.00 in0.0 mm 0.00 in0.0 mm
06:49 AM 46.9°F8.3°C 28.6°F-1.9°C 49% 4.0 mph W6.4 kmh W -- 30.04 in1017.3 mb 0.00 in0.0 mm 0.00 in0.0 mm 0.00 in0.0 mm
06:48 AM 46.7°F8.2°C 28.4°F-2.0°C 49% 2.0 mph WNW3.2 kmh WNW -- 30.04 in1017.3 mb 0.00 in0.0 mm 0.00 in0.0 mm 0.00 in0.0 mm
06:47 AM 46.4°F8.0°C 28.6°F-1.9°C 50% 4.0 mph W6.4 kmh W -- 30.04 in1017.3 mb 0.00 in0.0 mm 0.00 in0.0 mm 0.00 in0.0 mm
06:46 AM 45.9°F7.7°C 28.1°F-2.2°C 50% 3.0 mph W4.8 kmh W -- 30.04 in1017.3 mb 0.00 in0.0 mm 0.00 in0.0 mm 0.00 in0.0 mm
06:44 AM 45.5°F7.5°C 27.8°F-2.3°C 50% 3.0 mph W4.8 kmh W -- 30.04 in1017.3 mb 0.00 in0.0 mm 0.00 in0.0 mm 0.00 in0.0 mm
06:42 AM 45.2°F7.3°C 27.9°F-2.3°C 51% 3.0 mph W4.8 kmh W -- 30.04 in1017.3 mb 0.00 in0.0 mm 0.00 in0.0 mm 0.00 in0.0 mm
06:41 AM 45.0°F7.2°C 27.7°F-2.4°C 51% 2.0 mph W3.2 kmh W -- 30.04 in1017.3 mb 0.00 in0.0 mm 0.00 in0.0 mm 0.00 in0.0 mm
06:40 AM 45.0°F7.2°C 27.7°F-2.4°C 51% 4.0 mph W6.4 kmh W -- 30.04 in1017.3 mb 0.00 in0.0 mm 0.00 in0.0 mm 0.00 in0.0 mm
06:39 AM 45.0°F7.2°C 27.7°F-2.4°C 51% 2.0 mph W3.2 kmh W -- 30.04 in1017.3 mb 0.00 in0.0 mm 0.00 in0.0 mm 0.00 in0.0 mm
06:38 AM 44.2°F6.8°C 28.5°F-1.9°C 54% 2.0 mph W3.2 kmh W -- 30.04 in1017.3 mb 0.00 in0.0 mm 0.00 in0.0 mm 0.00 in0.0 mm
06:36 AM 44.0°F6.7°C 28.3°F-2.1°C 54% 3.0 mph W4.8 kmh W -- 30.04 in1017.3 mb 0.00 in0.0 mm 0.00 in0.0 mm 0.00 in0.0 mm
06:35 AM 43.9°F6.6°C 28.1°F-2.2°C 54% 3.0 mph W4.8 kmh W -- 30.04 in1017.3 mb 0.00 in0.0 mm 0.00 in0.0 mm 0.00 in0.0 mm
06:34 AM 43.6°F6.4°C 28.3°F-2.1°C 55% 2.0 mph WNW3.2 kmh WNW -- 30.04 in1017.3 mb 0.00 in0.0 mm 0.00 in0.0 mm 0.00 in0.0 mm
06:33 AM 43.2°F6.2°C 27.9°F-2.3°C 55% 2.0 mph WNW3.2 kmh WNW -- 30.04 in1017.3 mb 0.00 in0.0 mm 0.00 in0.0 mm 0.00 in0.0 mm
06:32 AM 43.0°F6.1°C 27.8°F-2.3°C 55% 2.0 mph WNW3.2 kmh WNW -- 30.04 in1017.3 mb 0.00 in0.0 mm 0.00 in0.0 mm 0.00 in0.0 mm
06:31 AM 43.0°F6.1°C 27.8°F-2.3°C 55% 2.0 mph W3.2 kmh W -- 30.04 in1017.3 mb 0.00 in0.0 mm 0.00 in0.0 mm 0.00 in0.0 mm
06:30 AM 43.2°F6.2°C 27.9°F-2.3°C 55% 2.0 mph W3.2 kmh W -- 30.04 in1017.3 mb 0.00 in0.0 mm 0.00 in0.0 mm 0.00 in0.0 mm
06:29 AM 43.4°F6.3°C 28.1°F-2.2°C 55% 2.0 mph WNW3.2 kmh WNW -- 30.04 in1017.3 mb 0.00 in0.0 mm 0.00 in0.0 mm 0.00 in0.0 mm
06:28 AM 43.6°F6.4°C 27.8°F-2.3°C 54% 3.0 mph NNW4.8 kmh NNW -- 30.04 in1017.3 mb 0.00 in0.0 mm 0.00 in0.0 mm 0.00 in0.0 mm
06:27 AM 44.0°F6.7°C 28.3°F-2.1°C 54% 4.0 mph NNW6.4 kmh NNW -- 30.04 in1017.3 mb 0.00 in0.0 mm 0.00 in0.0 mm 0.00 in0.0 mm
06:26 AM 44.0°F6.7°C 28.3°F-2.1°C 54% 6.0 mph NNW9.7 kmh NNW -- 30.04 in1017.3 mb 0.00 in0.0 mm 0.00 in0.0 mm 0.00 in0.0 mm
06:25 AM 44.8°F7.1°C 27.6°F-2.4°C 51% 5.0 mph NW8.0 kmh NW -- 30.04 in1017.3 mb 0.00 in0.0 mm 0.00 in0.0 mm 0.00 in0.0 mm
06:24 AM 45.5°F7.5°C 27.8°F-2.3°C 50% 4.0 mph NNW6.4 kmh NNW -- 30.04 in1017.3 mb 0.00 in0.0 mm 0.00 in0.0 mm 0.00 in0.0 mm
06:23 AM 45.7°F7.6°C 27.9°F-2.3°C 50% 3.0 mph NNE4.8 kmh NNE -- 30.04 in1017.3 mb 0.00 in0.0 mm 0.00 in0.0 mm 0.00 in0.0 mm
06:22 AM 45.5°F7.5°C 27.8°F-2.3°C 50% 2.0 mph W3.2 kmh W -- 30.04 in1017.3 mb 0.00 in0.0 mm 0.00 in0.0 mm 0.00 in0.0 mm
06:20 AM 45.5°F7.5°C 27.8°F-2.3°C 50% 2.0 mph WSW3.2 kmh WSW -- 30.04 in1017.3 mb 0.00 in0.0 mm 0.00 in0.0 mm 0.00 in0.0 mm
06:19 AM 45.5°F7.5°C 27.8°F-2.3°C 50% 1.0 mph WSW1.6 kmh WSW -- 30.03 in1016.9 mb 0.00 in0.0 mm 0.00 in0.0 mm 0.00 in0.0 mm
06:17 AM 45.5°F7.5°C 27.8°F-2.3°C 50% 3.0 mph W4.8 kmh W -- 30.03 in1016.9 mb 0.00 in0.0 mm 0.00 in0.0 mm 0.00 in0.0 mm
06:16 AM 45.2°F7.3°C 27.4°F-2.6°C 50% 3.0 mph W4.8 kmh W -- 30.04 in1017.3 mb 0.00 in0.0 mm 0.00 in0.0 mm 0.00 in0.0 mm
06:15 AM 45.0°F7.2°C 27.3°F-2.6°C 50% 3.0 mph W4.8 kmh W -- 30.03 in1016.9 mb 0.00 in0.0 mm 0.00 in0.0 mm 0.00 in0.0 mm
06:14 AM 45.0°F7.2°C 27.3°F-2.6°C 50% 4.0 mph W6.4 kmh W -- 30.03 in1016.9 mb 0.00 in0.0 mm 0.00 in0.0 mm 0.00 in0.0 mm
06:13 AM 45.0°F7.2°C 27.3°F-2.6°C 50% 3.0 mph W4.8 kmh W -- 30.03 in1016.9 mb 0.00 in0.0 mm 0.00 in0.0 mm 0.00 in0.0 mm
06:12 AM 44.8°F7.1°C 27.6°F-2.4°C 51% 4.0 mph W6.4 kmh W -- 30.03 in1016.9 mb 0.00 in0.0 mm 0.00 in0.0 mm 0.00 in0.0 mm
06:11 AM 44.6°F7.0°C 27.4°F-2.6°C 51% 4.0 mph W6.4 kmh W -- 30.04 in1017.3 mb 0.00 in0.0 mm 0.00 in0.0 mm 0.00 in0.0 mm
06:10 AM 44.4°F6.9°C 27.2°F-2.7°C 51% 4.0 mph W6.4 kmh W -- 30.04 in1017.3 mb 0.00 in0.0 mm 0.00 in0.0 mm 0.00 in0.0 mm
06:09 AM 44.4°F6.9°C 27.2°F-2.7°C 51% 4.0 mph W6.4 kmh W -- 30.03 in1016.9 mb 0.00 in0.0 mm 0.00 in0.0 mm 0.00 in0.0 mm
06:08 AM 44.2°F6.8°C 28.0°F-2.2°C 53% 3.0 mph W4.8 kmh W -- 30.03 in1016.9 mb 0.00 in0.0 mm 0.00 in0.0 mm 0.00 in0.0 mm
06:07 AM 44.0°F6.7°C 27.9°F-2.3°C 53% 3.0 mph W4.8 kmh W -- 30.04 in1017.3 mb 0.00 in0.0 mm 0.00 in0.0 mm 0.00 in0.0 mm
06:05 AM 43.9°F6.6°C 27.7°F-2.4°C 53% 4.0 mph W6.4 kmh W -- 30.04 in1017.3 mb 0.00 in0.0 mm 0.00 in0.0 mm 0.00 in0.0 mm
06:04 AM 43.9°F6.6°C 27.7°F-2.4°C 53% 3.0 mph W4.8 kmh W -- 30.04 in1017.3 mb 0.00 in0.0 mm 0.00 in0.0 mm 0.00 in0.0 mm
06:03 AM 43.9°F6.6°C 27.7°F-2.4°C 53% 3.0 mph WSW4.8 kmh WSW -- 30.04 in1017.3 mb 0.00 in0.0 mm 0.00 in0.0 mm 0.00 in0.0 mm
06:01 AM 44.0°F6.7°C 27.9°F-2.3°C 53% 3.0 mph W4.8 kmh W -- 30.04 in1017.3 mb 0.00 in0.0 mm 0.00 in0.0 mm 0.00 in0.0 mm
06:00 AM 44.0°F6.7°C 27.9°F-2.3°C 53% 4.0 mph W6.4 kmh W -- 30.04 in1017.3 mb 0.00 in0.0 mm 0.00 in0.0 mm 0.00 in0.0 mm
05:58 AM 44.2°F6.8°C 28.0°F-2.2°C 53% 3.0 mph W4.8 kmh W -- 30.04 in1017.3 mb 0.00 in0.0 mm 0.00 in0.0 mm 0.00 in0.0 mm
05:57 AM 44.2°F6.8°C 27.1°F-2.7°C 51% 4.0 mph WNW6.4 kmh WNW -- 30.04 in1017.3 mb 0.00 in0.0 mm 0.00 in0.0 mm 0.00 in0.0 mm
05:56 AM 44.4°F6.9°C 27.2°F-2.7°C 51% 4.0 mph W6.4 kmh W -- 30.04 in1017.3 mb 0.00 in0.0 mm 0.00 in0.0 mm 0.00 in0.0 mm
05:55 AM 44.6°F7.0°C 27.4°F-2.6°C 51% 4.0 mph W6.4 kmh W -- 30.04 in1017.3 mb 0.00 in0.0 mm 0.00 in0.0 mm 0.00 in0.0 mm
05:54 AM 45.0°F7.2°C 27.3°F-2.6°C 50% 4.0 mph NW6.4 kmh NW -- 30.04 in1017.3 mb 0.00 in0.0 mm 0.00 in0.0 mm 0.00 in0.0 mm
05:53 AM 45.2°F7.3°C 27.4°F-2.6°C 50% 4.0 mph NW6.4 kmh NW -- 30.03 in1016.9 mb 0.00 in0.0 mm 0.00 in0.0 mm 0.00 in0.0 mm
05:52 AM 45.5°F7.5°C 27.8°F-2.3°C 50% 3.0 mph NW4.8 kmh NW -- 30.04 in1017.3 mb 0.00 in0.0 mm 0.00 in0.0 mm 0.00 in0.0 mm
05:51 AM 45.7°F7.6°C 27.9°F-2.3°C 50% 2.0 mph WNW3.2 kmh WNW -- 30.04 in1017.3 mb 0.00 in0.0 mm 0.00 in0.0 mm 0.00 in0.0 mm
05:49 AM 45.9°F7.7°C 28.1°F-2.2°C 50% 2.0 mph WNW3.2 kmh WNW -- 30.04 in1017.3 mb 0.00 in0.0 mm 0.00 in0.0 mm 0.00 in0.0 mm
05:48 AM 45.9°F7.7°C 28.1°F-2.2°C 50% 3.0 mph W4.8 kmh W -- 30.04 in1017.3 mb 0.00 in0.0 mm 0.00 in0.0 mm 0.00 in0.0 mm
05:47 AM 45.9°F7.7°C 28.1°F-2.2°C 50% 2.0 mph W3.2 kmh W -- 30.04 in1017.3 mb 0.00 in0.0 mm 0.00 in0.0 mm 0.00 in0.0 mm
05:46 AM 45.9°F7.7°C 28.1°F-2.2°C 50% 3.0 mph WSW4.8 kmh WSW -- 30.04 in1017.3 mb 0.00 in0.0 mm 0.00 in0.0 mm 0.00 in0.0 mm
05:45 AM 45.9°F7.7°C 28.1°F-2.2°C 50% 3.0 mph W4.8 kmh W -- 30.04 in1017.3 mb 0.00 in0.0 mm 0.00 in0.0 mm 0.00 in0.0 mm
05:44 AM 45.9°F7.7°C 28.1°F-2.2°C 50% 3.0 mph WSW4.8 kmh WSW -- 30.04 in1017.3 mb 0.00 in0.0 mm 0.00 in0.0 mm 0.00 in0.0 mm
05:43 AM 45.9°F7.7°C 28.1°F-2.2°C 50% 4.0 mph W6.4 kmh W -- 30.03 in1016.9 mb 0.00 in0.0 mm 0.00 in0.0 mm 0.00 in0.0 mm
05:42 AM 45.7°F7.6°C 27.9°F-2.3°C 50% 4.0 mph W6.4 kmh W -- 30.03 in1016.9 mb 0.00 in0.0 mm 0.00 in0.0 mm 0.00 in0.0 mm
05:41 AM 45.7°F7.6°C 27.9°F-2.3°C 50% 3.0 mph W4.8 kmh W -- 30.04 in1017.3 mb 0.00 in0.0 mm 0.00 in0.0 mm 0.00 in0.0 mm
05:40 AM 45.7°F7.6°C 27.9°F-2.3°C 50% 4.0 mph W6.4 kmh W -- 30.04 in1017.3 mb 0.00 in0.0 mm 0.00 in0.0 mm 0.00 in0.0 mm
05:39 AM 45.5°F7.5°C 27.8°F-2.3°C 50% 4.0 mph W6.4 kmh W -- 30.03 in1016.9 mb 0.00 in0.0 mm 0.00 in0.0 mm 0.00 in0.0 mm
05:38 AM 45.5°F7.5°C 27.8°F-2.3°C 50% 4.0 mph WSW6.4 kmh WSW -- 30.03 in1016.9 mb 0.00 in0.0 mm 0.00 in0.0 mm 0.00 in0.0 mm
05:37 AM 45.5°F7.5°C 27.8°F-2.3°C 50% 4.0 mph W6.4 kmh W -- 30.03 in1016.9 mb 0.00 in0.0 mm 0.00 in0.0 mm 0.00 in0.0 mm
05:36 AM 45.5°F7.5°C 27.8°F-2.3°C 50% 4.0 mph W6.4 kmh W -- 30.04 in1017.3 mb 0.00 in0.0 mm 0.00 in0.0 mm 0.00 in0.0 mm
05:35 AM 45.5°F7.5°C 27.8°F-2.3°C 50% 3.0 mph W4.8 kmh W -- 30.04 in1017.3 mb 0.00 in0.0 mm 0.00 in0.0 mm 0.00 in0.0 mm
05:34 AM 45.5°F7.5°C 27.8°F-2.3°C 50% 3.0 mph WNW4.8 kmh WNW -- 30.04 in1017.3 mb 0.00 in0.0 mm 0.00 in0.0 mm 0.00 in0.0 mm
05:33 AM 45.7°F7.6°C 27.9°F-2.3°C 50% 2.0 mph W3.2 kmh W -- 30.03 in1016.9 mb 0.00 in0.0 mm 0.00 in0.0 mm 0.00 in0.0 mm
05:32 AM 45.7°F7.6°C 27.9°F-2.3°C 50% 2.0 mph WNW3.2 kmh WNW -- 30.04 in1017.3 mb 0.00 in0.0 mm 0.00 in0.0 mm 0.00 in0.0 mm
05:31 AM 45.9°F7.7°C 28.1°F-2.2°C 50% 3.0 mph NW4.8 kmh NW -- 30.04 in1017.3 mb 0.00 in0.0 mm 0.00 in0.0 mm 0.00 in0.0 mm
05:30 AM 45.9°F7.7°C 28.1°F-2.2°C 50% 2.0 mph W3.2 kmh W -- 30.04 in1017.3 mb 0.00 in0.0 mm 0.00 in0.0 mm 0.00 in0.0 mm
05:29 AM 45.9°F7.7°C 28.1°F-2.2°C 50% 3.0 mph WNW4.8 kmh WNW -- 30.04 in1017.3 mb 0.00 in0.0 mm 0.00 in0.0 mm 0.00 in0.0 mm
05:28 AM 45.9°F7.7°C 28.1°F-2.2°C 50% 3.0 mph WSW4.8 kmh WSW -- 30.04 in1017.3 mb 0.00 in0.0 mm 0.00 in0.0 mm 0.00 in0.0 mm
05:27 AM 45.9°F7.7°C 28.1°F-2.2°C 50% 2.0 mph W3.2 kmh W -- 30.04 in1017.3 mb 0.00 in0.0 mm 0.00 in0.0 mm 0.00 in0.0 mm
05:26 AM 46.1°F7.8°C 28.3°F-2.1°C 50% 2.0 mph W3.2 kmh W -- 30.04 in1017.3 mb 0.00 in0.0 mm 0.00 in0.0 mm 0.00 in0.0 mm
05:24 AM 46.4°F8.0°C 28.6°F-1.9°C 50% 2.0 mph W3.2 kmh W -- 30.04 in1017.3 mb 0.00 in0.0 mm 0.00 in0.0 mm 0.00 in0.0 mm
05:23 AM 46.4°F8.0°C 28.6°F-1.9°C 50% 4.0 mph W6.4 kmh W -- 30.03 in1016.9 mb 0.00 in0.0 mm 0.00 in0.0 mm 0.00 in0.0 mm
05:22 AM 45.9°F7.7°C 28.1°F-2.2°C 50% 4.0 mph W6.4 kmh W -- 30.03 in1016.9 mb 0.00 in0.0 mm 0.00 in0.0 mm 0.00 in0.0 mm
05:21 AM 45.9°F7.7°C 28.1°F-2.2°C 50% 3.0 mph SW4.8 kmh SW -- 30.03 in1016.9 mb 0.00 in0.0 mm 0.00 in0.0 mm 0.00 in0.0 mm
05:20 AM 45.9°F7.7°C 28.1°F-2.2°C 50% 3.0 mph W4.8 kmh W -- 30.03 in1016.9 mb 0.00 in0.0 mm 0.00 in0.0 mm 0.00 in0.0 mm
05:19 AM 45.9°F7.7°C 28.1°F-2.2°C 50% 4.0 mph W6.4 kmh W -- 30.04 in1017.3 mb 0.00 in0.0 mm 0.00 in0.0 mm 0.00 in0.0 mm
05:16 AM 45.9°F7.7°C 28.1°F-2.2°C 50% 5.0 mph W8.0 kmh W -- 30.04 in1017.3 mb 0.00 in0.0 mm 0.00 in0.0 mm 0.00 in0.0 mm
05:15 AM 45.9°F7.7°C 28.1°F-2.2°C 50% 4.0 mph W6.4 kmh W -- 30.03 in1016.9 mb 0.00 in0.0 mm 0.00 in0.0 mm 0.00 in0.0 mm
05:14 AM 45.9°F7.7°C 28.1°F-2.2°C 50% 3.0 mph WSW4.8 kmh WSW -- 30.03 in1016.9 mb 0.00 in0.0 mm 0.00 in0.0 mm 0.00 in0.0 mm
05:13 AM 45.9°F7.7°C 28.1°F-2.2°C 50% 4.0 mph W6.4 kmh W -- 30.04 in1017.3 mb 0.00 in0.0 mm 0.00 in0.0 mm 0.00 in0.0 mm
05:12 AM 45.7°F7.6°C 27.9°F-2.3°C 50% 4.0 mph W6.4 kmh W -- 30.04 in1017.3 mb 0.00 in0.0 mm 0.00 in0.0 mm 0.00 in0.0 mm
05:11 AM 45.5°F7.5°C 27.8°F-2.3°C 50% 4.0 mph W6.4 kmh W -- 30.04 in1017.3 mb 0.00 in0.0 mm 0.00 in0.0 mm 0.00 in0.0 mm
05:10 AM 45.2°F7.3°C 27.4°F-2.6°C 50% 4.0 mph WSW6.4 kmh WSW -- 30.04 in1017.3 mb 0.00 in0.0 mm 0.00 in0.0 mm 0.00 in0.0 mm
05:09 AM 45.0°F7.2°C 27.7°F-2.4°C 51% 3.0 mph W4.8 kmh W -- 30.04 in1017.3 mb 0.00 in0.0 mm 0.00 in0.0 mm 0.00 in0.0 mm
05:08 AM 45.0°F7.2°C 27.7°F-2.4°C 51% 2.0 mph W3.2 kmh W -- 30.04 in1017.3 mb 0.00 in0.0 mm 0.00 in0.0 mm 0.00 in0.0 mm
05:07 AM 45.0°F7.2°C 27.7°F-2.4°C 51% 3.0 mph WSW4.8 kmh WSW -- 30.04 in1017.3 mb 0.00 in0.0 mm 0.00 in0.0 mm 0.00 in0.0 mm
05:06 AM 44.8°F7.1°C 27.6°F-2.4°C 51% 4.0 mph W6.4 kmh W -- 30.04 in1017.3 mb 0.00 in0.0 mm 0.00 in0.0 mm 0.00 in0.0 mm
05:05 AM 44.4°F6.9°C 28.2°F-2.1°C 53% 4.0 mph W6.4 kmh W -- 30.04 in1017.3 mb 0.00 in0.0 mm 0.00 in0.0 mm 0.00 in0.0 mm
05:04 AM 44.2°F6.8°C 28.0°F-2.2°C 53% 2.0 mph SW3.2 kmh SW -- 30.04 in1017.3 mb 0.00 in0.0 mm 0.00 in0.0 mm 0.00 in0.0 mm
05:03 AM 44.0°F6.7°C 27.9°F-2.3°C 53% 3.0 mph W4.8 kmh W -- 30.04 in1017.3 mb 0.00 in0.0 mm 0.00 in0.0 mm 0.00 in0.0 mm
05:02 AM 43.9°F6.6°C 27.7°F-2.4°C 53% 3.0 mph WSW4.8 kmh WSW -- 30.04 in1017.3 mb 0.00 in0.0 mm 0.00 in0.0 mm 0.00 in0.0 mm
05:01 AM 43.9°F6.6°C 28.1°F-2.2°C 54% 2.0 mph W3.2 kmh W -- 30.04 in1017.3 mb 0.00 in0.0 mm 0.00 in0.0 mm 0.00 in0.0 mm
05:00 AM 43.4°F6.3°C 27.6°F-2.4°C 54% 3.0 mph WSW4.8 kmh WSW -- 30.04 in1017.3 mb 0.00 in0.0 mm 0.00 in0.0 mm 0.00 in0.0 mm
04:58 AM 43.4°F6.3°C 27.6°F-2.4°C 54% 2.0 mph SW3.2 kmh SW -- 30.04 in1017.3 mb 0.00 in0.0 mm 0.00 in0.0 mm 0.00 in0.0 mm
04:57 AM 43.4°F6.3°C 27.6°F-2.4°C 54% 2.0 mph W3.2 kmh W -- 30.04 in1017.3 mb 0.00 in0.0 mm 0.00 in0.0 mm 0.00 in0.0 mm
04:56 AM 43.2°F6.2°C 27.9°F-2.3°C 55% 3.0 mph W4.8 kmh W -- 30.04 in1017.3 mb 0.00 in0.0 mm 0.00 in0.0 mm 0.00 in0.0 mm
04:55 AM 43.2°F6.2°C 27.9°F-2.3°C 55% 3.0 mph WSW4.8 kmh WSW -- 30.04 in1017.3 mb 0.00 in0.0 mm 0.00 in0.0 mm 0.00 in0.0 mm
04:53 AM 43.0°F6.1°C 27.8°F-2.3°C 55% 2.0 mph W3.2 kmh W -- 30.04 in1017.3 mb 0.00 in0.0 mm 0.00 in0.0 mm 0.00 in0.0 mm
04:52 AM 43.0°F6.1°C 27.8°F-2.3°C 55% 2.0 mph W3.2 kmh W -- 30.05 in1017.6 mb 0.00 in0.0 mm 0.00 in0.0 mm 0.00 in0.0 mm
04:50 AM 43.0°F6.1°C 27.8°F-2.3°C 55% 2.0 mph W3.2 kmh W -- 30.04 in1017.3 mb 0.00 in0.0 mm 0.00 in0.0 mm 0.00 in0.0 mm
04:48 AM 43.0°F6.1°C 27.8°F-2.3°C 55% 2.0 mph WNW3.2 kmh WNW -- 30.04 in1017.3 mb 0.00 in0.0 mm 0.00 in0.0 mm 0.00 in0.0 mm
04:47 AM 43.2°F6.2°C 27.9°F-2.3°C 55% 3.0 mph NW4.8 kmh NW -- 30.04 in1017.3 mb 0.00 in0.0 mm 0.00 in0.0 mm 0.00 in0.0 mm
04:46 AM 43.2°F6.2°C 27.9°F-2.3°C 55% 2.0 mph WNW3.2 kmh WNW -- 30.04 in1017.3 mb 0.00 in0.0 mm 0.00 in0.0 mm 0.00 in0.0 mm
04:45 AM 43.2°F6.2°C 27.9°F-2.3°C 55% 2.0 mph WNW3.2 kmh WNW -- 30.05 in1017.6 mb 0.00 in0.0 mm 0.00 in0.0 mm 0.00 in0.0 mm
04:44 AM 43.4°F6.3°C 28.1°F-2.2°C 55% 2.0 mph W3.2 kmh W -- 30.05 in1017.6 mb 0.00 in0.0 mm 0.00 in0.0 mm 0.00 in0.0 mm
04:43 AM 43.4°F6.3°C 28.1°F-2.2°C 55% 2.0 mph WNW3.2 kmh WNW -- 30.04 in1017.3 mb 0.00 in0.0 mm 0.00 in0.0 mm 0.00 in0.0 mm
04:42 AM 43.6°F6.4°C 28.3°F-2.1°C 55% 3.0 mph WNW4.8 kmh WNW -- 30.04 in1017.3 mb 0.00 in0.0 mm 0.00 in0.0 mm 0.00 in0.0 mm
04:41 AM 43.9°F6.6°C 28.1°F-2.2°C 54% 4.0 mph NW6.4 kmh NW -- 30.04 in1017.3 mb 0.00 in0.0 mm 0.00 in0.0 mm 0.00 in0.0 mm
04:40 AM 43.9°F6.6°C 28.1°F-2.2°C 54% 3.0 mph WNW4.8 kmh WNW -- 30.04 in1017.3 mb 0.00 in0.0 mm 0.00 in0.0 mm 0.00 in0.0 mm
04:38 AM 43.6°F6.4°C 28.3°F-2.1°C 55% 2.0 mph W3.2 kmh W -- 30.04 in1017.3 mb 0.00 in0.0 mm 0.00 in0.0 mm 0.00 in0.0 mm
04:37 AM 43.6°F6.4°C 28.3°F-2.1°C 55% 3.0 mph W4.8 kmh W -- 30.05 in1017.6 mb 0.00 in0.0 mm 0.00 in0.0 mm 0.00 in0.0 mm
04:36 AM 43.6°F6.4°C 28.3°F-2.1°C 55% 2.0 mph W3.2 kmh W -- 30.05 in1017.6 mb 0.00 in0.0 mm 0.00 in0.0 mm 0.00 in0.0 mm
04:35 AM 43.6°F6.4°C 28.3°F-2.1°C 55% 2.0 mph WNW3.2 kmh WNW -- 30.05 in1017.6 mb 0.00 in0.0 mm 0.00 in0.0 mm 0.00 in0.0 mm
04:34 AM 43.6°F6.4°C 28.3°F-2.1°C 55% 3.0 mph W4.8 kmh W -- 30.05 in1017.6 mb 0.00 in0.0 mm 0.00 in0.0 mm 0.00 in0.0 mm
04:33 AM 43.9°F6.6°C 28.6°F-1.9°C 55% 3.0 mph WNW4.8 kmh WNW -- 30.05 in1017.6 mb 0.00 in0.0 mm 0.00 in0.0 mm 0.00 in0.0 mm
04:32 AM 43.9°F6.6°C 28.6°F-1.9°C 55% 3.0 mph NW4.8 kmh NW -- 30.05 in1017.6 mb 0.00 in0.0 mm 0.00 in0.0 mm 0.00 in0.0 mm
04:31 AM 44.0°F6.7°C 28.3°F-2.1°C 54% 4.0 mph NW6.4 kmh NW -- 30.04 in1017.3 mb 0.00 in0.0 mm 0.00 in0.0 mm 0.00 in0.0 mm
04:30 AM 44.2°F6.8°C 28.5°F-1.9°C 54% 4.0 mph WNW6.4 kmh WNW -- 30.04 in1017.3 mb 0.00 in0.0 mm 0.00 in0.0 mm 0.00 in0.0 mm
04:29 AM 44.4°F6.9°C 28.6°F-1.9°C 54% 3.0 mph NW4.8 kmh NW -- 30.04 in1017.3 mb 0.00 in0.0 mm 0.00 in0.0 mm 0.00 in0.0 mm
04:28 AM 44.6°F7.0°C 28.4°F-2.0°C 53% 3.0 mph WNW4.8 kmh WNW -- 30.04 in1017.3 mb 0.00 in0.0 mm 0.00 in0.0 mm 0.00 in0.0 mm
04:27 AM 45.0°F7.2°C 28.7°F-1.8°C 53% 4.0 mph WNW6.4 kmh WNW -- 30.04 in1017.3 mb 0.00 in0.0 mm 0.00 in0.0 mm 0.00 in0.0 mm
04:26 AM 45.0°F7.2°C 27.7°F-2.4°C 51% 3.0 mph NW4.8 kmh NW -- 30.04 in1017.3 mb 0.00 in0.0 mm 0.00 in0.0 mm 0.00 in0.0 mm
04:25 AM 45.5°F7.5°C 27.8°F-2.3°C 50% 3.0 mph NNW4.8 kmh NNW -- 30.04 in1017.3 mb 0.00 in0.0 mm 0.00 in0.0 mm 0.00 in0.0 mm
04:24 AM 45.7°F7.6°C 27.9°F-2.3°C 50% 3.0 mph NW4.8 kmh NW -- 30.04 in1017.3 mb 0.00 in0.0 mm 0.00 in0.0 mm 0.00 in0.0 mm
04:23 AM 45.7°F7.6°C 27.9°F-2.3°C 50% 3.0 mph WNW4.8 kmh WNW -- 30.05 in1017.6 mb 0.00 in0.0 mm 0.00 in0.0 mm 0.00 in0.0 mm
04:22 AM 45.7°F7.6°C 27.9°F-2.3°C 50% 2.0 mph W3.2 kmh W -- 30.05 in1017.6 mb 0.00 in0.0 mm 0.00 in0.0 mm 0.00 in0.0 mm
04:21 AM 45.7°F7.6°C 27.9°F-2.3°C 50% 3.0 mph WNW4.8 kmh WNW -- 30.04 in1017.3 mb 0.00 in0.0 mm 0.00 in0.0 mm 0.00 in0.0 mm
04:19 AM 45.7°F7.6°C 27.9°F-2.3°C 50% 2.0 mph W3.2 kmh W -- 30.04 in1017.3 mb 0.00 in0.0 mm 0.00 in0.0 mm 0.00 in0.0 mm
04:18 AM 45.7°F7.6°C 27.9°F-2.3°C 50% 1.0 mph W1.6 kmh W -- 30.04 in1017.3 mb 0.00 in0.0 mm 0.00 in0.0 mm 0.00 in0.0 mm
04:16 AM 45.7°F7.6°C 27.9°F-2.3°C 50% 2.0 mph W3.2 kmh W -- 30.05 in1017.6 mb 0.00 in0.0 mm 0.00 in0.0 mm 0.00 in0.0 mm
04:15 AM 45.5°F7.5°C 27.8°F-2.3°C 50% 2.0 mph W3.2 kmh W -- 30.05 in1017.6 mb 0.00 in0.0 mm 0.00 in0.0 mm 0.00 in0.0 mm
04:13 AM 45.5°F7.5°C 27.8°F-2.3°C 50% 2.0 mph WNW3.2 kmh WNW -- 30.05 in1017.6 mb 0.00 in0.0 mm 0.00 in0.0 mm 0.00 in0.0 mm
04:12 AM 45.5°F7.5°C 27.8°F-2.3°C 50% 1.0 mph W1.6 kmh W -- 30.05 in1017.6 mb 0.00 in0.0 mm 0.00 in0.0 mm 0.00 in0.0 mm
04:11 AM 45.5°F7.5°C 27.8°F-2.3°C 50% 2.0 mph W3.2 kmh W -- 30.05 in1017.6 mb 0.00 in0.0 mm 0.00 in0.0 mm 0.00 in0.0 mm
04:10 AM 45.5°F7.5°C 27.8°F-2.3°C 50% 3.0 mph W4.8 kmh W -- 30.05 in1017.6 mb 0.00 in0.0 mm 0.00 in0.0 mm 0.00 in0.0 mm
04:09 AM 45.0°F7.2°C 27.7°F-2.4°C 51% 3.0 mph W4.8 kmh W -- 30.05 in1017.6 mb 0.00 in0.0 mm 0.00 in0.0 mm 0.00 in0.0 mm
04:08 AM 45.0°F7.2°C 27.7°F-2.4°C 51% 2.0 mph SW3.2 kmh SW -- 30.05 in1017.6 mb 0.00 in0.0 mm 0.00 in0.0 mm 0.00 in0.0 mm
04:07 AM 45.0°F7.2°C 27.7°F-2.4°C 51% 2.0 mph W3.2 kmh W -- 30.05 in1017.6 mb 0.00 in0.0 mm 0.00 in0.0 mm 0.00 in0.0 mm
04:06 AM 44.8°F7.1°C 27.6°F-2.4°C 51% 2.0 mph W3.2 kmh W -- 30.05 in1017.6 mb 0.00 in0.0 mm 0.00 in0.0 mm 0.00 in0.0 mm
04:05 AM 44.8°F7.1°C 27.6°F-2.4°C 51% 3.0 mph W4.8 kmh W -- 30.05 in1017.6 mb 0.00 in0.0 mm 0.00 in0.0 mm 0.00 in0.0 mm
04:04 AM 44.8°F7.1°C 27.6°F-2.4°C 51% 2.0 mph W3.2 kmh W -- 30.05 in1017.6 mb 0.00 in0.0 mm 0.00 in0.0 mm 0.00 in0.0 mm
04:03 AM 45.0°F7.2°C 27.7°F-2.4°C 51% 2.0 mph WNW3.2 kmh WNW -- 30.05 in1017.6 mb 0.00 in0.0 mm 0.00 in0.0 mm 0.00 in0.0 mm
04:01 AM 45.0°F7.2°C 27.7°F-2.4°C 51% 3.0 mph W4.8 kmh W -- 30.05 in1017.6 mb 0.00 in0.0 mm 0.00 in0.0 mm 0.00 in0.0 mm
04:00 AM 45.2°F7.3°C 27.9°F-2.3°C 51% 4.0 mph W6.4 kmh W -- 30.05 in1017.6 mb 0.00 in0.0 mm 0.00 in0.0 mm 0.00 in0.0 mm
03:58 AM 45.5°F7.5°C 27.8°F-2.3°C 50% 3.0 mph WNW4.8 kmh WNW -- 30.05 in1017.6 mb 0.00 in0.0 mm 0.00 in0.0 mm 0.00 in0.0 mm
03:57 AM 45.5°F7.5°C 27.8°F-2.3°C 50% 2.0 mph WNW3.2 kmh WNW -- 30.05 in1017.6 mb 0.00 in0.0 mm 0.00 in0.0 mm 0.00 in0.0 mm
03:56 AM 45.5°F7.5°C 27.8°F-2.3°C 50% 3.0 mph WNW4.8 kmh WNW -- 30.05 in1017.6 mb 0.00 in0.0 mm 0.00 in0.0 mm 0.00 in0.0 mm
03:55 AM 45.5°F7.5°C 27.8°F-2.3°C 50% 3.0 mph W4.8 kmh W -- 30.04 in1017.3 mb 0.00 in0.0 mm 0.00 in0.0 mm 0.00 in0.0 mm
03:53 AM 45.0°F7.2°C 27.7°F-2.4°C 51% 3.0 mph WNW4.8 kmh WNW -- 30.05 in1017.6 mb 0.00 in0.0 mm 0.00 in0.0 mm 0.00 in0.0 mm
03:52 AM 45.0°F7.2°C 27.7°F-2.4°C 51% 3.0 mph W4.8 kmh W -- 30.05 in1017.6 mb 0.00 in0.0 mm 0.00 in0.0 mm 0.00 in0.0 mm
03:51 AM 44.8°F7.1°C 27.6°F-2.4°C 51% 3.0 mph W4.8 kmh W -- 30.05 in1017.6 mb 0.00 in0.0 mm 0.00 in0.0 mm 0.00 in0.0 mm
03:50 AM 44.8°F7.1°C 27.6°F-2.4°C 51% 2.0 mph W3.2 kmh W -- 30.05 in1017.6 mb 0.00 in0.0 mm 0.00 in0.0 mm 0.00 in0.0 mm
03:49 AM 45.0°F7.2°C 27.7°F-2.4°C 51% 3.0 mph W4.8 kmh W -- 30.05 in1017.6 mb 0.00 in0.0 mm 0.00 in0.0 mm 0.00 in0.0 mm
03:47 AM 45.0°F7.2°C 27.7°F-2.4°C 51% 2.0 mph W3.2 kmh W -- 30.05 in1017.6 mb 0.00 in0.0 mm 0.00 in0.0 mm 0.00 in0.0 mm
03:46 AM 45.2°F7.3°C 27.9°F-2.3°C 51% 3.0 mph WNW4.8 kmh WNW -- 30.05 in1017.6 mb 0.00 in0.0 mm 0.00 in0.0 mm 0.00 in0.0 mm
03:45 AM 45.2°F7.3°C 27.9°F-2.3°C 51% 2.0 mph WNW3.2 kmh WNW -- 30.05 in1017.6 mb 0.00 in0.0 mm 0.00 in0.0 mm 0.00 in0.0 mm
03:44 AM 45.2°F7.3°C 27.9°F-2.3°C 51% 3.0 mph WNW4.8 kmh WNW -- 30.06 in1017.9 mb 0.00 in0.0 mm 0.00 in0.0 mm 0.00 in0.0 mm
03:42 AM 45.0°F7.2°C 27.7°F-2.4°C 51% 3.0 mph WNW4.8 kmh WNW -- 30.05 in1017.6 mb 0.00 in0.0 mm 0.00 in0.0 mm 0.00 in0.0 mm
03:41 AM 45.0°F7.2°C 27.7°F-2.4°C 51% 2.0 mph W3.2 kmh W -- 30.05 in1017.6 mb 0.00 in0.0 mm 0.00 in0.0 mm 0.00 in0.0 mm
03:40 AM 45.0°F7.2°C 27.7°F-2.4°C 51% 2.0 mph WNW3.2 kmh WNW -- 30.05 in1017.6 mb 0.00 in0.0 mm 0.00 in0.0 mm 0.00 in0.0 mm
03:38 AM 45.0°F7.2°C 27.7°F-2.4°C 51% 3.0 mph WNW4.8 kmh WNW -- 30.05 in1017.6 mb 0.00 in0.0 mm 0.00 in0.0 mm 0.00 in0.0 mm
03:36 AM 45.0°F7.2°C 27.7°F-2.4°C 51% 2.0 mph WNW3.2 kmh WNW -- 30.05 in1017.6 mb 0.00 in0.0 mm 0.00 in0.0 mm 0.00 in0.0 mm
03:35 AM 45.2°F7.3°C 27.9°F-2.3°C 51% 3.0 mph WNW4.8 kmh WNW -- 30.06 in1017.9 mb 0.00 in0.0 mm 0.00 in0.0 mm 0.00 in0.0 mm
03:34 AM 45.7°F7.6°C 27.9°F-2.3°C 50% 4.0 mph NW6.4 kmh NW -- 30.06 in1017.9 mb 0.00 in0.0 mm 0.00 in0.0 mm 0.00 in0.0 mm
03:33 AM 45.9°F7.7°C 28.1°F-2.2°C 50% 3.0 mph NW4.8 kmh NW -- 30.06 in1017.9 mb 0.00 in0.0 mm 0.00 in0.0 mm 0.00 in0.0 mm
03:32 AM 45.9°F7.7°C 28.1°F-2.2°C 50% 2.0 mph WNW3.2 kmh WNW -- 30.06 in1017.9 mb 0.00 in0.0 mm 0.00 in0.0 mm 0.00 in0.0 mm
03:31 AM 46.1°F7.8°C 28.3°F-2.1°C 50% 2.0 mph WNW3.2 kmh WNW -- 30.05 in1017.6 mb 0.00 in0.0 mm 0.00 in0.0 mm 0.00 in0.0 mm
03:29 AM 46.1°F7.8°C 28.3°F-2.1°C 50% 2.0 mph W3.2 kmh W -- 30.06 in1017.9 mb 0.00 in0.0 mm 0.00 in0.0 mm 0.00 in0.0 mm
03:28 AM 46.1°F7.8°C 28.3°F-2.1°C 50% 2.0 mph WNW3.2 kmh WNW -- 30.06 in1017.9 mb 0.00 in0.0 mm 0.00 in0.0 mm 0.00 in0.0 mm
03:27 AM 46.1°F7.8°C 28.3°F-2.1°C 50% 3.0 mph W4.8 kmh W -- 30.06 in1017.9 mb 0.00 in0.0 mm 0.00 in0.0 mm 0.00 in0.0 mm
03:26 AM 46.1°F7.8°C 28.3°F-2.1°C 50% 3.0 mph WNW4.8 kmh WNW -- 30.06 in1017.9 mb 0.00 in0.0 mm 0.00 in0.0 mm 0.00 in0.0 mm
03:24 AM 46.1°F7.8°C 28.3°F-2.1°C 50% 3.0 mph WNW4.8 kmh WNW -- 30.05 in1017.6 mb 0.00 in0.0 mm 0.00 in0.0 mm 0.00 in0.0 mm
03:22 AM 46.1°F7.8°C 28.3°F-2.1°C 50% 3.0 mph WNW4.8 kmh WNW -- 30.06 in1017.9 mb 0.00 in0.0 mm 0.00 in0.0 mm 0.00 in0.0 mm
03:21 AM 46.1°F7.8°C 28.3°F-2.1°C 50% 2.0 mph WNW3.2 kmh WNW -- 30.06 in1017.9 mb 0.00 in0.0 mm 0.00 in0.0 mm 0.00 in0.0 mm
03:17 AM 46.1°F7.8°C 28.3°F-2.1°C 50% 2.0 mph W3.2 kmh W -- 30.06 in1017.9 mb 0.00 in0.0 mm 0.00 in0.0 mm 0.00 in0.0 mm
03:16 AM 46.1°F7.8°C 28.3°F-2.1°C 50% 2.0 mph WNW3.2 kmh WNW -- 30.06 in1017.9 mb 0.00 in0.0 mm 0.00 in0.0 mm 0.00 in0.0 mm
03:15 AM 46.1°F7.8°C 28.3°F-2.1°C 50% 2.0 mph W3.2 kmh W -- 30.06 in1017.9 mb 0.00 in0.0 mm 0.00 in0.0 mm 0.00 in0.0 mm
03:14 AM 46.1°F7.8°C 28.3°F-2.1°C 50% 3.0 mph W4.8 kmh W -- 30.06 in1017.9 mb 0.00 in0.0 mm 0.00 in0.0 mm 0.00 in0.0 mm
03:13 AM 46.1°F7.8°C 28.3°F-2.1°C 50% 3.0 mph WNW4.8 kmh WNW -- 30.06 in1017.9 mb 0.00 in0.0 mm 0.00 in0.0 mm 0.00 in0.0 mm
03:12 AM 46.1°F7.8°C 28.3°F-2.1°C 50% 2.0 mph W3.2 kmh W -- 30.06 in1017.9 mb 0.00 in0.0 mm 0.00 in0.0 mm 0.00 in0.0 mm
03:11 AM 46.1°F7.8°C 28.3°F-2.1°C 50% 3.0 mph W4.8 kmh W -- 30.06 in1017.9 mb 0.00 in0.0 mm 0.00 in0.0 mm 0.00 in0.0 mm
03:10 AM 46.1°F7.8°C 28.3°F-2.1°C 50% 2.0 mph W3.2 kmh W -- 30.06 in1017.9 mb 0.00 in0.0 mm 0.00 in0.0 mm 0.00 in0.0 mm
03:09 AM 46.1°F7.8°C 28.3°F-2.1°C 50% 4.0 mph WNW6.4 kmh WNW -- 30.06 in1017.9 mb 0.00 in0.0 mm 0.00 in0.0 mm 0.00 in0.0 mm
03:08 AM 46.1°F7.8°C 28.3°F-2.1°C 50% 5.0 mph WNW8.0 kmh WNW -- 30.06 in1017.9 mb 0.00 in0.0 mm 0.00 in0.0 mm 0.00 in0.0 mm
03:06 AM 46.1°F7.8°C 28.3°F-2.1°C 50% 3.0 mph W4.8 kmh W -- 30.05 in1017.6 mb 0.00 in0.0 mm 0.00 in0.0 mm 0.00 in0.0 mm
03:05 AM 46.1°F7.8°C 28.3°F-2.1°C 50% 2.0 mph WNW3.2 kmh WNW -- 30.05 in1017.6 mb 0.00 in0.0 mm 0.00 in0.0 mm 0.00 in0.0 mm
03:04 AM 46.1°F7.8°C 28.3°F-2.1°C 50% 2.0 mph SW3.2 kmh SW -- 30.05 in1017.6 mb 0.00 in0.0 mm 0.00 in0.0 mm 0.00 in0.0 mm
03:03 AM 46.4°F8.0°C 28.6°F-1.9°C 50% 3.0 mph W4.8 kmh W -- 30.06 in1017.9 mb 0.00 in0.0 mm 0.00 in0.0 mm 0.00 in0.0 mm
03:02 AM 46.4°F8.0°C 28.6°F-1.9°C 50% 2.0 mph W3.2 kmh W -- 30.06 in1017.9 mb 0.00 in0.0 mm 0.00 in0.0 mm 0.00 in0.0 mm
03:01 AM 46.4°F8.0°C 28.6°F-1.9°C 50% 2.0 mph W3.2 kmh W -- 30.05 in1017.6 mb 0.00 in0.0 mm 0.00 in0.0 mm 0.00 in0.0 mm
03:00 AM 46.5°F8.1°C 28.8°F-1.8°C 50% 2.0 mph WNW3.2 kmh WNW -- 30.06 in1017.9 mb 0.00 in0.0 mm 0.00 in0.0 mm 0.00 in0.0 mm
02:59 AM 46.5°F8.1°C 28.3°F-2.1°C 49% 2.0 mph W3.2 kmh W -- 30.06 in1017.9 mb 0.00 in0.0 mm 0.00 in0.0 mm 0.00 in0.0 mm
02:57 AM 46.5°F8.1°C 28.3°F-2.1°C 49% 3.0 mph W4.8 kmh W -- 30.06 in1017.9 mb 0.00 in0.0 mm 0.00 in0.0 mm 0.00 in0.0 mm
02:56 AM 46.7°F8.2°C 28.4°F-2.0°C 49% 2.0 mph W3.2 kmh W -- 30.06 in1017.9 mb 0.00 in0.0 mm 0.00 in0.0 mm 0.00 in0.0 mm
02:55 AM 46.9°F8.3°C 28.6°F-1.9°C 49% Calm Calm -- 30.06 in1017.9 mb 0.00 in0.0 mm 0.00 in0.0 mm 0.00 in0.0 mm
02:54 AM 46.9°F8.3°C 28.6°F-1.9°C 49% Calm Calm -- 30.06 in1017.9 mb 0.00 in0.0 mm 0.00 in0.0 mm 0.00 in0.0 mm
02:53 AM 47.1°F8.4°C 28.8°F-1.8°C 49% Calm Calm -- 30.06 in1017.9 mb 0.00 in0.0 mm 0.00 in0.0 mm 0.00 in0.0 mm
02:52 AM 47.1°F8.4°C 28.8°F-1.8°C 49% 2.0 mph W3.2 kmh W -- 30.06 in1017.9 mb 0.00 in0.0 mm 0.00 in0.0 mm 0.00 in0.0 mm
02:49 AM 47.1°F8.4°C 28.8°F-1.8°C 49% 4.0 mph W6.4 kmh W -- 30.06 in1017.9 mb 0.00 in0.0 mm 0.00 in0.0 mm 0.00 in0.0 mm
02:48 AM 47.1°F8.4°C 28.8°F-1.8°C 49% 3.0 mph WSW4.8 kmh WSW -- 30.06 in1017.9 mb 0.00 in0.0 mm 0.00 in0.0 mm 0.00 in0.0 mm
02:47 AM 47.1°F8.4°C 28.8°F-1.8°C 49% 2.0 mph W3.2 kmh W -- 30.06 in1017.9 mb 0.00 in0.0 mm 0.00 in0.0 mm 0.00 in0.0 mm
02:46 AM 47.1°F8.4°C 28.8°F-1.8°C 49% 3.0 mph W4.8 kmh W -- 30.06 in1017.9 mb 0.00 in0.0 mm 0.00 in0.0 mm 0.00 in0.0 mm
02:45 AM 47.1°F8.4°C 28.8°F-1.8°C 49% 2.0 mph WSW3.2 kmh WSW -- 30.06 in1017.9 mb 0.00 in0.0 mm 0.00 in0.0 mm 0.00 in0.0 mm
02:44 AM 47.1°F8.4°C 28.8°F-1.8°C 49% 3.0 mph WSW4.8 kmh WSW -- 30.06 in1017.9 mb 0.00 in0.0 mm 0.00 in0.0 mm 0.00 in0.0 mm
02:43 AM 47.1°F8.4°C 28.8°F-1.8°C 49% 3.0 mph W4.8 kmh W -- 30.06 in1017.9 mb 0.00 in0.0 mm 0.00 in0.0 mm 0.00 in0.0 mm
02:42 AM 47.1°F8.4°C 28.3°F-2.1°C 48% 4.0 mph WSW6.4 kmh WSW -- 30.06 in1017.9 mb 0.00 in0.0 mm 0.00 in0.0 mm 0.00 in0.0 mm
02:41 AM 47.3°F8.5°C 28.4°F-2.0°C 48% 3.0 mph WNW4.8 kmh WNW -- 30.06 in1017.9 mb 0.00 in0.0 mm 0.00 in0.0 mm 0.00 in0.0 mm
02:40 AM 47.3°F8.5°C 28.4°F-2.0°C 48% 4.0 mph W6.4 kmh W -- 30.06 in1017.9 mb 0.00 in0.0 mm 0.00 in0.0 mm 0.00 in0.0 mm
02:39 AM 47.3°F8.5°C 28.4°F-2.0°C 48% 3.0 mph W4.8 kmh W -- 30.07 in1018.3 mb 0.00 in0.0 mm 0.00 in0.0 mm 0.00 in0.0 mm
02:38 AM 47.3°F8.5°C 28.4°F-2.0°C 48% 4.0 mph WSW6.4 kmh WSW -- 30.07 in1018.3 mb 0.00 in0.0 mm 0.00 in0.0 mm 0.00 in0.0 mm
02:37 AM 47.3°F8.5°C 28.4°F-2.0°C 48% 3.0 mph W4.8 kmh W -- 30.07 in1018.3 mb 0.00 in0.0 mm 0.00 in0.0 mm 0.00 in0.0 mm
02:36 AM 47.3°F8.5°C 28.4°F-2.0°C 48% 3.0 mph WSW4.8 kmh WSW -- 30.07 in1018.3 mb 0.00 in0.0 mm 0.00 in0.0 mm 0.00 in0.0 mm
02:35 AM 47.3°F8.5°C 28.4°F-2.0°C 48% 3.0 mph SW4.8 kmh SW -- 30.07 in1018.3 mb 0.00 in0.0 mm 0.00 in0.0 mm 0.00 in0.0 mm
02:34 AM 47.3°F8.5°C 28.4°F-2.0°C 48% 4.0 mph W6.4 kmh W -- 30.07 in1018.3 mb 0.00 in0.0 mm 0.00 in0.0 mm 0.00 in0.0 mm
02:33 AM 47.3°F8.5°C 28.4°F-2.0°C 48% 3.0 mph W4.8 kmh W -- 30.07 in1018.3 mb 0.00 in0.0 mm 0.00 in0.0 mm 0.00 in0.0 mm
02:32 AM 47.5°F8.6°C 28.6°F-1.9°C 48% 2.0 mph WNW3.2 kmh WNW -- 30.07 in1018.3 mb 0.00 in0.0 mm 0.00 in0.0 mm 0.00 in0.0 mm
02:30 AM 47.6°F8.7°C 28.8°F-1.8°C 48% 3.0 mph W4.8 kmh W -- 30.07 in1018.3 mb 0.00 in0.0 mm 0.00 in0.0 mm 0.00 in0.0 mm
02:29 AM 47.7°F8.7°C 28.8°F-1.8°C 48% 3.0 mph W4.8 kmh W -- 30.07 in1018.3 mb 0.00 in0.0 mm 0.00 in0.0 mm 0.00 in0.0 mm
02:28 AM 47.7°F8.7°C 28.8°F-1.8°C 48% 4.0 mph W6.4 kmh W -- 30.07 in1018.3 mb 0.00 in0.0 mm 0.00 in0.0 mm 0.00 in0.0 mm
02:27 AM 48.0°F8.9°C 29.1°F-1.6°C 48% 3.0 mph W4.8 kmh W -- 30.07 in1018.3 mb 0.00 in0.0 mm 0.00 in0.0 mm 0.00 in0.0 mm
02:24 AM 48.0°F8.9°C 29.1°F-1.6°C 48% 4.0 mph W6.4 kmh W -- 30.07 in1018.3 mb 0.00 in0.0 mm 0.00 in0.0 mm 0.00 in0.0 mm
02:23 AM 48.0°F8.9°C 29.1°F-1.6°C 48% 4.0 mph WSW6.4 kmh WSW -- 30.07 in1018.3 mb 0.00 in0.0 mm 0.00 in0.0 mm 0.00 in0.0 mm
02:22 AM 48.0°F8.9°C 29.1°F-1.6°C 48% 4.0 mph W6.4 kmh W -- 30.07 in1018.3 mb 0.00 in0.0 mm 0.00 in0.0 mm 0.00 in0.0 mm
02:21 AM 48.2°F9.0°C 29.2°F-1.6°C 48% 3.0 mph W4.8 kmh W -- 30.07 in1018.3 mb 0.00 in0.0 mm 0.00 in0.0 mm 0.00 in0.0 mm
02:20 AM 48.2°F9.0°C 29.2°F-1.6°C 48% 5.0 mph W8.0 kmh W -- 30.07 in1018.3 mb 0.00 in0.0 mm 0.00 in0.0 mm 0.00 in0.0 mm
02:19 AM 48.4°F9.1°C 29.4°F-1.4°C 48% 4.0 mph W6.4 kmh W -- 30.07 in1018.3 mb 0.00 in0.0 mm 0.00 in0.0 mm 0.00 in0.0 mm
02:18 AM 48.4°F9.1°C 29.4°F-1.4°C 48% 6.0 mph W9.7 kmh W -- 30.07 in1018.3 mb 0.00 in0.0 mm 0.00 in0.0 mm 0.00 in0.0 mm
02:17 AM 48.4°F9.1°C 29.4°F-1.4°C 48% 3.0 mph WSW4.8 kmh WSW -- 30.07 in1018.3 mb 0.00 in0.0 mm 0.00 in0.0 mm 0.00 in0.0 mm
02:16 AM 48.4°F9.1°C 29.4°F-1.4°C 48% 5.0 mph W8.0 kmh W -- 30.07 in1018.3 mb 0.00 in0.0 mm 0.00 in0.0 mm 0.00 in0.0 mm
02:15 AM 48.4°F9.1°C 29.4°F-1.4°C 48% 4.0 mph W6.4 kmh W -- 30.07 in1018.3 mb 0.00 in0.0 mm 0.00 in0.0 mm 0.00 in0.0 mm
02:14 AM 48.4°F9.1°C 29.4°F-1.4°C 48% 4.0 mph WSW6.4 kmh WSW -- 30.07 in1018.3 mb 0.00 in0.0 mm 0.00 in0.0 mm 0.00 in0.0 mm
02:13 AM 48.2°F9.0°C 29.2°F-1.6°C 48% 4.0 mph W6.4 kmh W -- 30.07 in1018.3 mb 0.00 in0.0 mm 0.00 in0.0 mm 0.00 in0.0 mm
02:12 AM 48.2°F9.0°C 29.2°F-1.6°C 48% 5.0 mph WSW8.0 kmh WSW -- 30.07 in1018.3 mb 0.00 in0.0 mm 0.00 in0.0 mm 0.00 in0.0 mm
02:11 AM 48.2°F9.0°C 29.2°F-1.6°C 48% 4.0 mph W6.4 kmh W -- 30.07 in1018.3 mb 0.00 in0.0 mm 0.00 in0.0 mm 0.00 in0.0 mm
02:10 AM 48.2°F9.0°C 29.2°F-1.6°C 48% 4.0 mph WSW6.4 kmh WSW -- 30.08 in1018.6 mb 0.00 in0.0 mm 0.00 in0.0 mm 0.00 in0.0 mm
02:09 AM 48.0°F8.9°C 29.1°F-1.6°C 48% 5.0 mph W8.0 kmh W -- 30.08 in1018.6 mb 0.00 in0.0 mm 0.00 in0.0 mm 0.00 in0.0 mm
02:08 AM 47.7°F8.7°C 28.8°F-1.8°C 48% 4.0 mph W6.4 kmh W -- 30.08 in1018.6 mb 0.00 in0.0 mm 0.00 in0.0 mm 0.00 in0.0 mm
02:07 AM 47.7°F8.7°C 28.8°F-1.8°C 48% 4.0 mph WSW6.4 kmh WSW -- 30.08 in1018.6 mb 0.00 in0.0 mm 0.00 in0.0 mm 0.00 in0.0 mm
02:06 AM 47.7°F8.7°C 28.8°F-1.8°C 48% 4.0 mph SW6.4 kmh SW -- 30.07 in1018.3 mb 0.00 in0.0 mm 0.00 in0.0 mm 0.00 in0.0 mm
02:05 AM 47.7°F8.7°C 28.8°F-1.8°C 48% 4.0 mph W6.4 kmh W -- 30.07 in1018.3 mb 0.00 in0.0 mm 0.00 in0.0 mm 0.00 in0.0 mm
02:03 AM 47.7°F8.7°C 28.8°F-1.8°C 48% 4.0 mph W6.4 kmh W -- 30.08 in1018.6 mb 0.00 in0.0 mm 0.00 in0.0 mm 0.00 in0.0 mm
02:02 AM 47.7°F8.7°C 28.8°F-1.8°C 48% 5.0 mph WSW8.0 kmh WSW -- 30.08 in1018.6 mb 0.00 in0.0 mm 0.00 in0.0 mm 0.00 in0.0 mm
02:00 AM 47.6°F8.7°C 28.8°F-1.8°C 48% 5.0 mph W8.0 kmh W -- 30.08 in1018.6 mb 0.00 in0.0 mm 0.00 in0.0 mm 0.00 in0.0 mm
01:59 AM 47.6°F8.7°C 28.8°F-1.8°C 48% 5.0 mph WSW8.0 kmh WSW -- 30.08 in1018.6 mb 0.00 in0.0 mm 0.00 in0.0 mm 0.00 in0.0 mm
01:58 AM 47.6°F8.7°C 28.8°F-1.8°C 48% 4.0 mph WSW6.4 kmh WSW -- 30.08 in1018.6 mb 0.00 in0.0 mm 0.00 in0.0 mm 0.00 in0.0 mm
01:56 AM 47.7°F8.7°C 28.8°F-1.8°C 48% 4.0 mph W6.4 kmh W -- 30.08 in1018.6 mb 0.00 in0.0 mm 0.00 in0.0 mm 0.00 in0.0 mm
01:55 AM 47.7°F8.7°C 28.8°F-1.8°C 48% 4.0 mph W6.4 kmh W -- 30.07 in1018.3 mb 0.00 in0.0 mm 0.00 in0.0 mm 0.00 in0.0 mm
01:52 AM 47.7°F8.7°C 28.8°F-1.8°C 48% 4.0 mph W6.4 kmh W -- 30.08 in1018.6 mb 0.00 in0.0 mm 0.00 in0.0 mm 0.00 in0.0 mm
01:51 AM 47.7°F8.7°C 28.8°F-1.8°C 48% 4.0 mph WSW6.4 kmh WSW -- 30.08 in1018.6 mb 0.00 in0.0 mm 0.00 in0.0 mm 0.00 in0.0 mm
01:50 AM 48.0°F8.9°C 29.1°F-1.6°C 48% 3.0 mph SW4.8 kmh SW -- 30.08 in1018.6 mb 0.00 in0.0 mm 0.00 in0.0 mm 0.00 in0.0 mm
01:49 AM 48.0°F8.9°C 29.1°F-1.6°C 48% 3.0 mph W4.8 kmh W -- 30.08 in1018.6 mb 0.00 in0.0 mm 0.00 in0.0 mm 0.00 in0.0 mm
01:48 AM 48.0°F8.9°C 29.1°F-1.6°C 48% 4.0 mph WSW6.4 kmh WSW -- 30.08 in1018.6 mb 0.00 in0.0 mm 0.00 in0.0 mm 0.00 in0.0 mm
01:47 AM 47.7°F8.7°C 28.8°F-1.8°C 48% 4.0 mph W6.4 kmh W -- 30.08 in1018.6 mb 0.00 in0.0 mm 0.00 in0.0 mm 0.00 in0.0 mm
01:46 AM 47.7°F8.7°C 28.8°F-1.8°C 48% 5.0 mph W8.0 kmh W -- 30.08 in1018.6 mb 0.00 in0.0 mm 0.00 in0.0 mm 0.00 in0.0 mm
01:44 AM 47.7°F8.7°C 28.8°F-1.8°C 48% 4.0 mph W6.4 kmh W -- 30.08 in1018.6 mb 0.00 in0.0 mm 0.00 in0.0 mm 0.00 in0.0 mm
01:43 AM 47.6°F8.7°C 28.8°F-1.8°C 48% 4.0 mph WSW6.4 kmh WSW -- 30.08 in1018.6 mb 0.00 in0.0 mm 0.00 in0.0 mm 0.00 in0.0 mm
01:40 AM 47.6°F8.7°C 29.3°F-1.5°C 49% 4.0 mph W6.4 kmh W -- 30.08 in1018.6 mb 0.00 in0.0 mm 0.00 in0.0 mm 0.00 in0.0 mm
01:39 AM 47.5°F8.6°C 29.1°F-1.6°C 49% 4.0 mph W6.4 kmh W -- 30.08 in1018.6 mb 0.00 in0.0 mm 0.00 in0.0 mm 0.00 in0.0 mm
01:38 AM 47.5°F8.6°C 29.1°F-1.6°C 49% 4.0 mph SW6.4 kmh SW -- 30.08 in1018.6 mb 0.00 in0.0 mm 0.00 in0.0 mm 0.00 in0.0 mm
01:37 AM 47.5°F8.6°C 29.1°F-1.6°C 49% 4.0 mph WSW6.4 kmh WSW -- 30.08 in1018.6 mb 0.00 in0.0 mm 0.00 in0.0 mm 0.00 in0.0 mm
01:36 AM 47.5°F8.6°C 29.1°F-1.6°C 49% 3.0 mph W4.8 kmh W -- 30.09 in1019.0 mb 0.00 in0.0 mm 0.00 in0.0 mm 0.00 in0.0 mm
01:35 AM 47.5°F8.6°C 29.1°F-1.6°C 49% 3.0 mph WSW4.8 kmh WSW -- 30.08 in1018.6 mb 0.00 in0.0 mm 0.00 in0.0 mm 0.00 in0.0 mm
01:34 AM 47.5°F8.6°C 29.1°F-1.6°C 49% 2.0 mph W3.2 kmh W -- 30.09 in1019.0 mb 0.00 in0.0 mm 0.00 in0.0 mm 0.00 in0.0 mm
01:33 AM 47.5°F8.6°C 29.1°F-1.6°C 49% 3.0 mph W4.8 kmh W -- 30.09 in1019.0 mb 0.00 in0.0 mm 0.00 in0.0 mm 0.00 in0.0 mm
01:32 AM 47.5°F8.6°C 29.1°F-1.6°C 49% 4.0 mph WSW6.4 kmh WSW -- 30.08 in1018.6 mb 0.00 in0.0 mm 0.00 in0.0 mm 0.00 in0.0 mm
01:31 AM 47.5°F8.6°C 29.1°F-1.6°C 49% 4.0 mph W6.4 kmh W -- 30.08 in1018.6 mb 0.00 in0.0 mm 0.00 in0.0 mm 0.00 in0.0 mm
01:29 AM 47.5°F8.6°C 29.1°F-1.6°C 49% 4.0 mph WSW6.4 kmh WSW -- 30.09 in1019.0 mb 0.00 in0.0 mm 0.00 in0.0 mm 0.00 in0.0 mm
01:28 AM 47.5°F8.6°C 29.1°F-1.6°C 49% 4.0 mph W6.4 kmh W -- 30.09 in1019.0 mb 0.00 in0.0 mm 0.00 in0.0 mm 0.00 in0.0 mm
01:27 AM 47.5°F8.6°C 29.1°F-1.6°C 49% 5.0 mph W8.0 kmh W -- 30.09 in1019.0 mb 0.00 in0.0 mm 0.00 in0.0 mm 0.00 in0.0 mm
01:25 AM 47.3°F8.5°C 28.9°F-1.7°C 49% 4.0 mph WSW6.4 kmh WSW -- 30.09 in1019.0 mb 0.00 in0.0 mm 0.00 in0.0 mm 0.00 in0.0 mm
01:23 AM 47.3°F8.5°C 28.9°F-1.7°C 49% 4.0 mph W6.4 kmh W -- 30.09 in1019.0 mb 0.00 in0.0 mm 0.00 in0.0 mm 0.00 in0.0 mm
01:22 AM 47.1°F8.4°C 28.8°F-1.8°C 49% 4.0 mph W6.4 kmh W -- 30.09 in1019.0 mb 0.00 in0.0 mm 0.00 in0.0 mm 0.00 in0.0 mm
01:21 AM 47.1°F8.4°C 28.8°F-1.8°C 49% 5.0 mph W8.0 kmh W -- 30.09 in1019.0 mb 0.00 in0.0 mm 0.00 in0.0 mm 0.00 in0.0 mm
01:20 AM 47.1°F8.4°C 28.8°F-1.8°C 49% 4.0 mph SW6.4 kmh SW -- 30.09 in1019.0 mb 0.00 in0.0 mm 0.00 in0.0 mm 0.00 in0.0 mm
01:19 AM 47.1°F8.4°C 28.8°F-1.8°C 49% 4.0 mph WSW6.4 kmh WSW -- 30.09 in1019.0 mb 0.00 in0.0 mm 0.00 in0.0 mm 0.00 in0.0 mm
01:18 AM 47.1°F8.4°C 28.8°F-1.8°C 49% 5.0 mph W8.0 kmh W -- 30.09 in1019.0 mb 0.00 in0.0 mm 0.00 in0.0 mm 0.00 in0.0 mm
01:17 AM 47.3°F8.5°C 28.9°F-1.7°C 49% 3.0 mph SW4.8 kmh SW -- 30.09 in1019.0 mb 0.00 in0.0 mm 0.00 in0.0 mm 0.00 in0.0 mm
01:16 AM 47.3°F8.5°C 28.9°F-1.7°C 49% 3.0 mph W4.8 kmh W -- 30.09 in1019.0 mb 0.00 in0.0 mm 0.00 in0.0 mm 0.00 in0.0 mm
01:15 AM 47.5°F8.6°C 28.6°F-1.9°C 48% 3.0 mph W4.8 kmh W -- 30.09 in1019.0 mb 0.00 in0.0 mm 0.00 in0.0 mm 0.00 in0.0 mm
01:14 AM 47.5°F8.6°C 28.6°F-1.9°C 48% 3.0 mph NW4.8 kmh NW -- 30.09 in1019.0 mb 0.00 in0.0 mm 0.00 in0.0 mm 0.00 in0.0 mm
01:12 AM 47.5°F8.6°C 28.6°F-1.9°C 48% 4.0 mph W6.4 kmh W -- 30.09 in1019.0 mb 0.00 in0.0 mm 0.00 in0.0 mm 0.00 in0.0 mm
01:11 AM 47.3°F8.5°C 28.4°F-2.0°C 48% 4.0 mph W6.4 kmh W -- 30.09 in1019.0 mb 0.00 in0.0 mm 0.00 in0.0 mm 0.00 in0.0 mm
01:10 AM 47.3°F8.5°C 28.4°F-2.0°C 48% 5.0 mph W8.0 kmh W -- 30.09 in1019.0 mb 0.00 in0.0 mm 0.00 in0.0 mm 0.00 in0.0 mm
01:08 AM 47.3°F8.5°C 28.4°F-2.0°C 48% 3.0 mph W4.8 kmh W -- 30.09 in1019.0 mb 0.00 in0.0 mm 0.00 in0.0 mm 0.00 in0.0 mm
01:07 AM 47.3°F8.5°C 28.4°F-2.0°C 48% 3.0 mph WSW4.8 kmh WSW -- 30.09 in1019.0 mb 0.00 in0.0 mm 0.00 in0.0 mm 0.00 in0.0 mm
01:06 AM 47.5°F8.6°C 28.6°F-1.9°C 48% 3.0 mph WSW4.8 kmh WSW -- 30.09 in1019.0 mb 0.00 in0.0 mm 0.00 in0.0 mm 0.00 in0.0 mm
01:05 AM 47.5°F8.6°C 28.6°F-1.9°C 48% 2.0 mph W3.2 kmh W -- 30.09 in1019.0 mb 0.00 in0.0 mm 0.00 in0.0 mm 0.00 in0.0 mm
01:04 AM 47.6°F8.7°C 28.8°F-1.8°C 48% 2.0 mph NNW3.2 kmh NNW -- 30.09 in1019.0 mb 0.00 in0.0 mm 0.00 in0.0 mm 0.00 in0.0 mm
01:03 AM 47.6°F8.7°C 27.7°F-2.4°C 46% 3.0 mph W4.8 kmh W -- 30.09 in1019.0 mb 0.00 in0.0 mm 0.00 in0.0 mm 0.00 in0.0 mm
01:02 AM 47.7°F8.7°C 27.7°F-2.4°C 46% 3.0 mph SW4.8 kmh SW -- 30.09 in1019.0 mb 0.00 in0.0 mm 0.00 in0.0 mm 0.00 in0.0 mm
01:01 AM 48.0°F8.9°C 28.0°F-2.2°C 46% 1.0 mph WSW1.6 kmh WSW -- 30.09 in1019.0 mb 0.00 in0.0 mm 0.00 in0.0 mm 0.00 in0.0 mm
01:00 AM 48.0°F8.9°C 28.0°F-2.2°C 46% 1.0 mph SSW1.6 kmh SSW -- 30.09 in1019.0 mb 0.00 in0.0 mm 0.00 in0.0 mm 0.00 in0.0 mm
12:59 AM 48.0°F8.9°C 28.0°F-2.2°C 46% 2.0 mph W3.2 kmh W -- 30.09 in1019.0 mb 0.00 in0.0 mm 0.00 in0.0 mm 0.00 in0.0 mm
12:58 AM 48.0°F8.9°C 28.0°F-2.2°C 46% 2.0 mph WNW3.2 kmh WNW -- 30.10 in1019.3 mb 0.00 in0.0 mm 0.00 in0.0 mm 0.00 in0.0 mm
12:57 AM 48.0°F8.9°C 28.0°F-2.2°C 46% 2.0 mph W3.2 kmh W -- 30.09 in1019.0 mb 0.00 in0.0 mm 0.00 in0.0 mm 0.00 in0.0 mm
12:56 AM 47.7°F8.7°C 27.7°F-2.4°C 46% 1.0 mph W1.6 kmh W -- 30.09 in1019.0 mb 0.00 in0.0 mm 0.00 in0.0 mm 0.00 in0.0 mm
12:55 AM 47.7°F8.7°C 27.7°F-2.4°C 46% 2.0 mph SW3.2 kmh SW -- 30.09 in1019.0 mb 0.00 in0.0 mm 0.00 in0.0 mm 0.00 in0.0 mm
12:54 AM 47.7°F8.7°C 27.7°F-2.4°C 46% 4.0 mph WSW6.4 kmh WSW -- 30.09 in1019.0 mb 0.00 in0.0 mm 0.00 in0.0 mm 0.00 in0.0 mm
12:53 AM 47.7°F8.7°C 27.7°F-2.4°C 46% 4.0 mph W6.4 kmh W -- 30.09 in1019.0 mb 0.00 in0.0 mm 0.00 in0.0 mm 0.00 in0.0 mm
12:52 AM 48.0°F8.9°C 28.0°F-2.2°C 46% 4.0 mph W6.4 kmh W -- 30.10 in1019.3 mb 0.00 in0.0 mm 0.00 in0.0 mm 0.00 in0.0 mm
12:51 AM 47.7°F8.7°C 27.7°F-2.4°C 46% 4.0 mph S6.4 kmh S -- 30.09 in1019.0 mb 0.00 in0.0 mm 0.00 in0.0 mm 0.00 in0.0 mm
12:50 AM 47.7°F8.7°C 27.7°F-2.4°C 46% 2.0 mph NNW3.2 kmh NNW -- 30.09 in1019.0 mb 0.00 in0.0 mm 0.00 in0.0 mm 0.00 in0.0 mm
12:49 AM 47.7°F8.7°C 27.7°F-2.4°C 46% 3.0 mph SW4.8 kmh SW -- 30.09 in1019.0 mb 0.00 in0.0 mm 0.00 in0.0 mm 0.00 in0.0 mm
12:48 AM 47.7°F8.7°C 27.7°F-2.4°C 46% 3.0 mph WSW4.8 kmh WSW -- 30.10 in1019.3 mb 0.00 in0.0 mm 0.00 in0.0 mm 0.00 in0.0 mm
12:47 AM 47.7°F8.7°C 27.7°F-2.4°C 46% 4.0 mph W6.4 kmh W -- 30.10 in1019.3 mb 0.00 in0.0 mm 0.00 in0.0 mm 0.00 in0.0 mm
12:46 AM 48.2°F9.0°C 28.2°F-2.1°C 46% 3.0 mph SW4.8 kmh SW -- 30.10 in1019.3 mb 0.00 in0.0 mm 0.00 in0.0 mm 0.00 in0.0 mm
12:45 AM 48.2°F9.0°C 28.2°F-2.1°C 46% 3.0 mph W4.8 kmh W -- 30.10 in1019.3 mb 0.00 in0.0 mm 0.00 in0.0 mm 0.00 in0.0 mm
12:44 AM 48.2°F9.0°C 28.2°F-2.1°C 46% 5.0 mph NE8.0 kmh NE -- 30.10 in1019.3 mb 0.00 in0.0 mm 0.00 in0.0 mm 0.00 in0.0 mm
12:43 AM 48.4°F9.1°C 28.4°F-2.0°C 46% 2.0 mph WSW3.2 kmh WSW -- 30.10 in1019.3 mb 0.00 in0.0 mm 0.00 in0.0 mm 0.00 in0.0 mm
12:42 AM 48.5°F9.2°C 28.5°F-1.9°C 46% 3.0 mph SSE4.8 kmh SSE -- 30.10 in1019.3 mb 0.00 in0.0 mm 0.00 in0.0 mm 0.00 in0.0 mm
12:41 AM 48.5°F9.2°C 28.5°F-1.9°C 46% 1.0 mph WSW1.6 kmh WSW -- 30.10 in1019.3 mb 0.00 in0.0 mm 0.00 in0.0 mm 0.00 in0.0 mm
12:40 AM 48.6°F9.2°C 28.0°F-2.2°C 45% 1.0 mph SSW1.6 kmh SSW -- 30.10 in1019.3 mb 0.00 in0.0 mm 0.00 in0.0 mm 0.00 in0.0 mm
12:39 AM 48.6°F9.2°C 28.0°F-2.2°C 45% 5.0 mph SW8.0 kmh SW -- 30.10 in1019.3 mb 0.00 in0.0 mm 0.00 in0.0 mm 0.00 in0.0 mm
12:38 AM 48.9°F9.4°C 28.3°F-2.1°C 45% 2.0 mph NW3.2 kmh NW -- 30.10 in1019.3 mb 0.00 in0.0 mm 0.00 in0.0 mm 0.00 in0.0 mm
12:37 AM 49.2°F9.6°C 28.7°F-1.8°C 45% 2.0 mph SSW3.2 kmh SSW -- 30.10 in1019.3 mb 0.00 in0.0 mm 0.00 in0.0 mm 0.00 in0.0 mm
12:36 AM 49.2°F9.6°C 28.7°F-1.8°C 45% 3.0 mph W4.8 kmh W -- 30.10 in1019.3 mb 0.00 in0.0 mm 0.00 in0.0 mm 0.00 in0.0 mm
12:35 AM 49.4°F9.7°C 28.8°F-1.8°C 45% 4.0 mph SSW6.4 kmh SSW -- 30.10 in1019.3 mb 0.00 in0.0 mm 0.00 in0.0 mm 0.00 in0.0 mm
12:34 AM 49.4°F9.7°C 28.8°F-1.8°C 45% 5.0 mph S8.0 kmh S -- 30.10 in1019.3 mb 0.00 in0.0 mm 0.00 in0.0 mm 0.00 in0.0 mm
12:33 AM 49.4°F9.7°C 28.8°F-1.8°C 45% 4.0 mph S6.4 kmh S -- 30.10 in1019.3 mb 0.00 in0.0 mm 0.00 in0.0 mm 0.00 in0.0 mm
12:32 AM 49.4°F9.7°C 28.8°F-1.8°C 45% 5.0 mph WSW8.0 kmh WSW -- 30.10 in1019.3 mb 0.00 in0.0 mm 0.00 in0.0 mm 0.00 in0.0 mm
12:31 AM 49.4°F9.7°C 28.8°F-1.8°C 45% 5.0 mph S8.0 kmh S -- 30.10 in1019.3 mb 0.00 in0.0 mm 0.00 in0.0 mm 0.00 in0.0 mm
12:30 AM 49.4°F9.7°C 28.8°F-1.8°C 45% 6.0 mph S9.7 kmh S -- 30.10 in1019.3 mb 0.00 in0.0 mm 0.00 in0.0 mm 0.00 in0.0 mm
12:29 AM 49.4°F9.7°C 28.8°F-1.8°C 45% 3.0 mph S4.8 kmh S -- 30.10 in1019.3 mb 0.00 in0.0 mm 0.00 in0.0 mm 0.00 in0.0 mm
12:28 AM 49.4°F9.7°C 28.8°F-1.8°C 45% 7.0 mph S11.3 kmh S -- 30.10 in1019.3 mb 0.00 in0.0 mm 0.00 in0.0 mm 0.00 in0.0 mm
12:27 AM 49.2°F9.6°C 28.7°F-1.8°C 45% 3.0 mph SSW4.8 kmh SSW -- 30.10 in1019.3 mb 0.00 in0.0 mm 0.00 in0.0 mm 0.00 in0.0 mm
12:26 AM 49.2°F9.6°C 28.7°F-1.8°C 45% 2.0 mph S3.2 kmh S -- 30.10 in1019.3 mb 0.00 in0.0 mm 0.00 in0.0 mm 0.00 in0.0 mm
12:25 AM 49.2°F9.6°C 28.7°F-1.8°C 45% 2.0 mph SSW3.2 kmh SSW -- 30.10 in1019.3 mb 0.00 in0.0 mm 0.00 in0.0 mm 0.00 in0.0 mm
12:24 AM 49.2°F9.6°C 28.7°F-1.8°C 45% 6.0 mph SSE9.7 kmh SSE -- 30.10 in1019.3 mb 0.00 in0.0 mm 0.00 in0.0 mm 0.00 in0.0 mm
12:23 AM 49.2°F9.6°C 28.7°F-1.8°C 45% 3.0 mph SW4.8 kmh SW -- 30.10 in1019.3 mb 0.00 in0.0 mm 0.00 in0.0 mm 0.00 in0.0 mm
12:22 AM 49.2°F9.6°C 28.7°F-1.8°C 45% 4.0 mph S6.4 kmh S -- 30.10 in1019.3 mb 0.00 in0.0 mm 0.00 in0.0 mm 0.00 in0.0 mm
12:21 AM 49.4°F9.7°C 28.8°F-1.8°C 45% 4.0 mph W6.4 kmh W -- 30.10 in1019.3 mb 0.00 in0.0 mm 0.00 in0.0 mm 0.00 in0.0 mm
12:20 AM 49.4°F9.7°C 28.8°F-1.8°C 45% 3.0 mph SSE4.8 kmh SSE -- 30.10 in1019.3 mb 0.00 in0.0 mm 0.00 in0.0 mm 0.00 in0.0 mm
12:19 AM 49.2°F9.6°C 28.7°F-1.8°C 45% 4.0 mph SSE6.4 kmh SSE -- 30.10 in1019.3 mb 0.00 in0.0 mm 0.00 in0.0 mm 0.00 in0.0 mm
12:18 AM 49.0°F9.4°C 28.3°F-2.1°C 45% 3.0 mph ESE4.8 kmh ESE -- 30.10 in1019.3 mb 0.00 in0.0 mm 0.00 in0.0 mm 0.00 in0.0 mm
12:17 AM 49.0°F9.4°C 28.3°F-2.1°C 45% 2.0 mph WSW3.2 kmh WSW -- 30.10 in1019.3 mb 0.00 in0.0 mm 0.00 in0.0 mm 0.00 in0.0 mm
12:16 AM 49.0°F9.4°C 28.3°F-2.1°C 45% 4.0 mph W6.4 kmh W -- 30.10 in1019.3 mb 0.00 in0.0 mm 0.00 in0.0 mm 0.00 in0.0 mm
12:15 AM 48.9°F9.4°C 28.9°F-1.7°C 46% 5.0 mph 8.0 kmh -- 30.10 in1019.3 mb 0.00 in0.0 mm 0.00 in0.0 mm 0.00 in0.0 mm
12:14 AM 48.9°F9.4°C 28.9°F-1.7°C 46% 2.0 mph ESE3.2 kmh ESE -- 30.11 in1019.6 mb 0.00 in0.0 mm 0.00 in0.0 mm 0.00 in0.0 mm
12:13 AM 48.9°F9.4°C 28.9°F-1.7°C 46% 3.0 mph WSW4.8 kmh WSW -- 30.10 in1019.3 mb 0.00 in0.0 mm 0.00 in0.0 mm 0.00 in0.0 mm
12:11 AM 48.6°F9.2°C 28.5°F-1.9°C 46% 4.0 mph W6.4 kmh W -- 30.10 in1019.3 mb 0.00 in0.0 mm 0.00 in0.0 mm 0.00 in0.0 mm
12:10 AM 48.6°F9.2°C 28.5°F-1.9°C 46% 5.0 mph NNW8.0 kmh NNW -- 30.10 in1019.3 mb 0.00 in0.0 mm 0.00 in0.0 mm 0.00 in0.0 mm
12:09 AM 48.5°F9.2°C 28.5°F-1.9°C 46% 4.0 mph WNW6.4 kmh WNW -- 30.10 in1019.3 mb 0.00 in0.0 mm 0.00 in0.0 mm 0.00 in0.0 mm
12:08 AM 48.5°F9.2°C 28.5°F-1.9°C 46% 4.0 mph SSE6.4 kmh SSE -- 30.10 in1019.3 mb 0.00 in0.0 mm 0.00 in0.0 mm 0.00 in0.0 mm
12:07 AM 48.5°F9.2°C 28.5°F-1.9°C 46% 3.0 mph NW4.8 kmh NW -- 30.10 in1019.3 mb 0.00 in0.0 mm 0.00 in0.0 mm 0.00 in0.0 mm
12:06 AM 48.5°F9.2°C 28.5°F-1.9°C 46% 4.0 mph SW6.4 kmh SW -- 30.10 in1019.3 mb 0.00 in0.0 mm 0.00 in0.0 mm 0.00 in0.0 mm
12:05 AM 48.5°F9.2°C 28.5°F-1.9°C 46% 5.0 mph WSW8.0 kmh WSW -- 30.10 in1019.3 mb 0.00 in0.0 mm 0.00 in0.0 mm 0.00 in0.0 mm
12:04 AM 48.5°F9.2°C 28.5°F-1.9°C 46% 5.0 mph SW8.0 kmh SW -- 30.10 in1019.3 mb 0.00 in0.0 mm 0.00 in0.0 mm 0.00 in0.0 mm
12:03 AM 48.6°F9.2°C 28.0°F-2.2°C 45% 5.0 mph SSW8.0 kmh SSW -- 30.10 in1019.3 mb 0.00 in0.0 mm 0.00 in0.0 mm 0.00 in0.0 mm
12:02 AM 48.9°F9.4°C 28.3°F-2.1°C 45% 3.0 mph S4.8 kmh S -- 30.10 in1019.3 mb 0.00 in0.0 mm 0.00 in0.0 mm 0.00 in0.0 mm
12:01 AM 48.9°F9.4°C 28.3°F-2.1°C 45% 4.0 mph WNW6.4 kmh WNW -- 30.10 in1019.3 mb 0.00 in0.0 mm 0.00 in0.0 mm 0.00 in0.0 mm
12:00 AM 48.9°F9.4°C 28.3°F-2.1°C 45% 3.0 mph SE4.8 kmh SE -- 30.10 in1019.3 mb 0.00 in0.0 mm 0.00 in0.0 mm 0.00 in0.0 mm